Wetterdaten: Freitag, 07.08.2015
Datum Zeit Temp. Aussen +5cm Feuchte Auss BlattFeu 1 Luftdruck Regen Sonnenschein Regendauer Solar Windben
07.08.2015 00:00 22,2 C 20,6 C 77 % 0 lf 1015,1 hPa 0,0 l/m 0 min 0 min 0 W/m 6,3 km/h (2 Bft)
07.08.2015 00:02 22,2 C 20,6 C 77 % 0 lf 1015,1 hPa 0,0 l/m 0 min 0 min 0 W/m 8,4 km/h (2 Bft)
07.08.2015 00:05 22,2 C 20,0 C 77 % 0 lf 1015,1 hPa 0,0 l/m 0 min 0 min 0 W/m 4,2 km/h (1 Bft)
07.08.2015 00:08 22,1 C 20,0 C 77 % 0 lf 1015,0 hPa 0,0 l/m 0 min 0 min 0 W/m 10,5 km/h (2 Bft)
07.08.2015 00:10 22,1 C 20,0 C 77 % 0 lf 1015,2 hPa 0,0 l/m 0 min 0 min 0 W/m 6,3 km/h (2 Bft)
07.08.2015 00:12 22,1 C 20,0 C 77 % 0 lf 1015,2 hPa 0,0 l/m 0 min 0 min 0 W/m 6,3 km/h (2 Bft)
07.08.2015 00:14 22,1 C 20,0 C 77 % 0 lf 1015,3 hPa 0,0 l/m 0 min 0 min 0 W/m 8,4 km/h (2 Bft)
07.08.2015 00:16 22,1 C 20,0 C 77 % 0 lf 1015,2 hPa 0,0 l/m 0 min 0 min 0 W/m 6,3 km/h (2 Bft)
07.08.2015 00:18 22,0 C 20,0 C 77 % 0 lf 1015,2 hPa 0,0 l/m 0 min 0 min 0 W/m 8,4 km/h (2 Bft)
07.08.2015 00:20 22,0 C 20,0 C 77 % 0 lf 1015,1 hPa 0,0 l/m 0 min 0 min 0 W/m 6,3 km/h (2 Bft)
07.08.2015 00:22 22,0 C 20,0 C 77 % 0 lf 1015,1 hPa 0,0 l/m 0 min 0 min 0 W/m 6,3 km/h (2 Bft)
07.08.2015 00:24 21,9 C 20,0 C 77 % 0 lf 1015,2 hPa 0,0 l/m 0 min 0 min 0 W/m 4,2 km/h (1 Bft)
07.08.2015 00:26 21,9 C 20,0 C 77 % 0 lf 1015,2 hPa 0,0 l/m 0 min 0 min 0 W/m 4,2 km/h (1 Bft)
07.08.2015 00:28 21,9 C 20,0 C 77 % 0 lf 1015,1 hPa 0,0 l/m 0 min 0 min 0 W/m 6,3 km/h (2 Bft)
07.08.2015 00:30 21,9 C 20,0 C 77 % 0 lf 1015,2 hPa 0,0 l/m 0 min 0 min 0 W/m 6,3 km/h (2 Bft)
07.08.2015 00:32 21,9 C 19,4 C 77 % 0 lf 1015,2 hPa 0,0 l/m 0 min 0 min 0 W/m 6,3 km/h (2 Bft)
07.08.2015 00:34 21,9 C 20,0 C 77 % 0 lf 1015,1 hPa 0,0 l/m 0 min 0 min 0 W/m 6,3 km/h (2 Bft)
07.08.2015 00:36 21,8 C 20,0 C 77 % 0 lf 1015,2 hPa 0,0 l/m 0 min 0 min 0 W/m 8,4 km/h (2 Bft)
07.08.2015 00:38 21,8 C 20,0 C 78 % 0 lf 1015,1 hPa 0,0 l/m 0 min 0 min 0 W/m 8,4 km/h (2 Bft)
07.08.2015 00:40 21,8 C 19,4 C 78 % 0 lf 1015,1 hPa 0,0 l/m 0 min 0 min 0 W/m 8,4 km/h (2 Bft)
07.08.2015 00:42 21,8 C 20,0 C 78 % 0 lf 1015,1 hPa 0,0 l/m 0 min 0 min 0 W/m 6,3 km/h (2 Bft)
07.08.2015 00:44 21,8 C 20,0 C 78 % 0 lf 1015,1 hPa 0,0 l/m 0 min 0 min 0 W/m 6,3 km/h (2 Bft)
07.08.2015 00:46 21,7 C 19,4 C 78 % 0 lf 1015,2 hPa 0,0 l/m 0 min 0 min 0 W/m 6,3 km/h (2 Bft)
07.08.2015 00:48 21,7 C 19,4 C 78 % 0 lf 1015,3 hPa 0,0 l/m 0 min 0 min 0 W/m 6,3 km/h (2 Bft)
07.08.2015 00:50 21,7 C 19,4 C 78 % 0 lf 1015,2 hPa 0,0 l/m 0 min 0 min 0 W/m 6,3 km/h (2 Bft)
07.08.2015 00:52 21,7 C 19,4 C 78 % 0 lf 1015,1 hPa 0,0 l/m 0 min 0 min 0 W/m 6,3 km/h (2 Bft)
07.08.2015 00:54 21,7 C 19,4 C 78 % 0 lf 1015,1 hPa 0,0 l/m 0 min 0 min 0 W/m 8,4 km/h (2 Bft)
07.08.2015 00:56 21,7 C 19,4 C 78 % 0 lf 1015,1 hPa 0,0 l/m 0 min 0 min 0 W/m 6,3 km/h (2 Bft)
07.08.2015 00:58 21,6 C 19,4 C 78 % 0 lf 1015,1 hPa 0,0 l/m 0 min 0 min 0 W/m 6,3 km/h (2 Bft)
07.08.2015 01:00 21,6 C 19,4 C 78 % 0 lf 1015,3 hPa 0,0 l/m 0 min 0 min 0 W/m 4,2 km/h (1 Bft)
07.08.2015 01:02 21,6 C 19,4 C 78 % 0 lf 1015,3 hPa 0,0 l/m 0 min 0 min 0 W/m 4,2 km/h (1 Bft)
07.08.2015 01:04 21,6 C 19,4 C 78 % 0 lf 1015,2 hPa 0,0 l/m 0 min 0 min 0 W/m 4,2 km/h (1 Bft)
07.08.2015 01:06 21,6 C 19,4 C 78 % 0 lf 1015,2 hPa 0,0 l/m 0 min 0 min 0 W/m 6,3 km/h (2 Bft)
07.08.2015 01:08 21,6 C 19,4 C 78 % 0 lf 1015,3 hPa 0,0 l/m 0 min 0 min 0 W/m 6,3 km/h (2 Bft)
07.08.2015 01:10 21,5 C 19,4 C 78 % 0 lf 1015,3 hPa 0,0 l/m 0 min 0 min 0 W/m 6,3 km/h (2 Bft)
07.08.2015 01:12 21,5 C 19,4 C 78 % 0 lf 1015,3 hPa 0,0 l/m 0 min 0 min 0 W/m 4,2 km/h (1 Bft)
07.08.2015 01:14 21,5 C 19,4 C 79 % 0 lf 1015,4 hPa 0,0 l/m 0 min 0 min 0 W/m 6,3 km/h (2 Bft)
07.08.2015 01:16 21,4 C 19,4 C 79 % 0 lf 1015,4 hPa 0,0 l/m 0 min 0 min 0 W/m 4,2 km/h (1 Bft)
07.08.2015 01:18 21,4 C 19,4 C 79 % 0 lf 1015,3 hPa 0,0 l/m 0 min 0 min 0 W/m 4,2 km/h (1 Bft)
07.08.2015 01:20 21,4 C 19,4 C 79 % 0 lf 1015,4 hPa 0,0 l/m 0 min 0 min 0 W/m 4,2 km/h (1 Bft)
07.08.2015 01:22 21,4 C 19,4 C 79 % 0 lf 1015,4 hPa 0,0 l/m 0 min 0 min 0 W/m 8,4 km/h (2 Bft)
07.08.2015 01:24 21,3 C 19,4 C 79 % 0 lf 1015,5 hPa 0,0 l/m 0 min 0 min 0 W/m 6,3 km/h (2 Bft)
07.08.2015 01:26 21,3 C 19,4 C 80 % 0 lf 1015,4 hPa 0,0 l/m 0 min 0 min 0 W/m 4,2 km/h (1 Bft)
07.08.2015 01:28 21,3 C 19,4 C 80 % 0 lf 1015,4 hPa 0,0 l/m 0 min 0 min 0 W/m 8,4 km/h (2 Bft)
07.08.2015 01:30 21,3 C 19,4 C 80 % 3 lf 1015,4 hPa 0,0 l/m 0 min 0 min 0 W/m 8,4 km/h (2 Bft)
07.08.2015 01:32 21,3 C 19,4 C 80 % 0 lf 1015,3 hPa 0,0 l/m 0 min 0 min 0 W/m 8,4 km/h (2 Bft)
07.08.2015 01:34 21,3 C 19,4 C 80 % 0 lf 1015,3 hPa 0,0 l/m 0 min 0 min 0 W/m 8,4 km/h (2 Bft)
07.08.2015 01:36 21,2 C 19,4 C 80 % 0 lf 1015,2 hPa 0,0 l/m 0 min 0 min 0 W/m 8,4 km/h (2 Bft)
07.08.2015 01:38 21,2 C 19,4 C 80 % 0 lf 1015,1 hPa 0,0 l/m 0 min 0 min 0 W/m 10,5 km/h (2 Bft)
07.08.2015 01:40 21,2 C 19,4 C 81 % 0 lf 1015,0 hPa 0,0 l/m 0 min 0 min 0 W/m 6,3 km/h (2 Bft)
07.08.2015 01:42 21,2 C 19,4 C 81 % 0 lf 1015,2 hPa 0,0 l/m 0 min 0 min 0 W/m 4,2 km/h (1 Bft)
07.08.2015 01:44 21,2 C 19,4 C 81 % 0 lf 1015,1 hPa 0,0 l/m 0 min 0 min 0 W/m 4,2 km/h (1 Bft)
07.08.2015 01:46 21,2 C 19,4 C 81 % 0 lf 1015,1 hPa 0,0 l/m 0 min 0 min 0 W/m 8,4 km/h (2 Bft)
07.08.2015 01:48 21,1 C 19,4 C 81 % 0 lf 1015,0 hPa 0,0 l/m 0 min 0 min 0 W/m 8,4 km/h (2 Bft)
07.08.2015 01:50 21,1 C 19,4 C 81 % 0 lf 1015,1 hPa 0,0 l/m 0 min 0 min 0 W/m 8,4 km/h (2 Bft)
07.08.2015 01:52 21,1 C 19,4 C 81 % 0 lf 1015,2 hPa 0,0 l/m 0 min 0 min 0 W/m 8,4 km/h (2 Bft)
07.08.2015 01:54 21,1 C 19,4 C 81 % 0 lf 1015,1 hPa 0,0 l/m 0 min 0 min 0 W/m 8,4 km/h (2 Bft)
07.08.2015 01:56 21,1 C 19,4 C 81 % 0 lf 1015,0 hPa 0,0 l/m 0 min 0 min 0 W/m 10,5 km/h (2 Bft)
07.08.2015 01:58 21,0 C 19,4 C 81 % 0 lf 1015,1 hPa 0,0 l/m 0 min 0 min 0 W/m 8,4 km/h (2 Bft)
07.08.2015 02:00 21,0 C 19,4 C 82 % 0 lf 1015,2 hPa 0,0 l/m 0 min 0 min 0 W/m 8,4 km/h (2 Bft)
07.08.2015 02:02 21,0 C 19,4 C 82 % 0 lf 1015,3 hPa 0,0 l/m 0 min 0 min 0 W/m 8,4 km/h (2 Bft)
07.08.2015 02:04 21,0 C 19,4 C 82 % 0 lf 1015,2 hPa 0,0 l/m 0 min 0 min 0 W/m 8,4 km/h (2 Bft)
07.08.2015 02:06 21,0 C 19,4 C 82 % 0 lf 1015,1 hPa 0,0 l/m 0 min 0 min 0 W/m 10,5 km/h (2 Bft)
07.08.2015 02:08 21,0 C 19,4 C 82 % 0 lf 1015,1 hPa 0,0 l/m 0 min 0 min 0 W/m 8,4 km/h (2 Bft)
07.08.2015 02:10 20,9 C 19,4 C 82 % 0 lf 1015,0 hPa 0,0 l/m 0 min 0 min 0 W/m 10,5 km/h (2 Bft)
07.08.2015 02:12 20,9 C 19,4 C 82 % 0 lf 1014,8 hPa 0,0 l/m 0 min 0 min 0 W/m 14,6 km/h (3 Bft)
07.08.2015 02:14 20,9 C 18,9 C 82 % 0 lf 1014,8 hPa 0,0 l/m 0 min 0 min 0 W/m 12,6 km/h (3 Bft)
07.08.2015 02:16 20,9 C 18,9 C 82 % 0 lf 1014,9 hPa 0,0 l/m 0 min 0 min 0 W/m 12,6 km/h (3 Bft)
07.08.2015 02:18 20,8 C 18,9 C 83 % 0 lf 1015,0 hPa 0,0 l/m 0 min 0 min 0 W/m 8,4 km/h (2 Bft)
07.08.2015 02:20 20,8 C 18,9 C 82 % 0 lf 1015,0 hPa 0,0 l/m 0 min 0 min 0 W/m 12,6 km/h (3 Bft)
07.08.2015 02:22 20,8 C 18,9 C 82 % 0 lf 1015,0 hPa 0,0 l/m 0 min 0 min 0 W/m 12,6 km/h (3 Bft)
07.08.2015 02:24 20,8 C 18,9 C 83 % 0 lf 1015,1 hPa 0,0 l/m 0 min 0 min 0 W/m 12,6 km/h (3 Bft)
07.08.2015 02:26 20,8 C 18,9 C 83 % 0 lf 1015,0 hPa 0,0 l/m 0 min 0 min 0 W/m 12,6 km/h (3 Bft)
07.08.2015 02:28 20,7 C 18,9 C 83 % 0 lf 1015,0 hPa 0,0 l/m 0 min 0 min 0 W/m 12,6 km/h (3 Bft)
07.08.2015 02:30 20,7 C 18,9 C 83 % 0 lf 1015,0 hPa 0,0 l/m 0 min 0 min 0 W/m 8,4 km/h (2 Bft)
07.08.2015 02:32 20,7 C 18,9 C 83 % 0 lf 1014,9 hPa 0,0 l/m 0 min 0 min 0 W/m 8,4 km/h (2 Bft)
07.08.2015 02:34 20,7 C 18,9 C 83 % 0 lf 1014,9 hPa 0,0 l/m 0 min 0 min 0 W/m 6,3 km/h (2 Bft)
07.08.2015 02:36 20,6 C 18,9 C 83 % 0 lf 1015,0 hPa 0,0 l/m 0 min 0 min 0 W/m 10,5 km/h (2 Bft)
07.08.2015 02:38 20,6 C 18,9 C 83 % 0 lf 1015,0 hPa 0,0 l/m 0 min 0 min 0 W/m 8,4 km/h (2 Bft)
07.08.2015 02:40 20,6 C 18,9 C 83 % 0 lf 1015,0 hPa 0,0 l/m 0 min 0 min 0 W/m 12,6 km/h (3 Bft)
07.08.2015 02:42 20,6 C 18,9 C 84 % 0 lf 1015,0 hPa 0,0 l/m 0 min 0 min 0 W/m 10,5 km/h (2 Bft)
07.08.2015 02:44 20,5 C 18,9 C 84 % 0 lf 1015,0 hPa 0,0 l/m 0 min 0 min 0 W/m 12,6 km/h (3 Bft)
07.08.2015 02:46 20,5 C 18,9 C 84 % 0 lf 1015,0 hPa 0,0 l/m 0 min 0 min 0 W/m 8,4 km/h (2 Bft)
07.08.2015 02:48 20,4 C 18,9 C 84 % 0 lf 1014,9 hPa 0,0 l/m 0 min 0 min 0 W/m 10,5 km/h (2 Bft)
07.08.2015 02:50 20,4 C 18,9 C 84 % 0 lf 1014,9 hPa 0,0 l/m 0 min 0 min 0 W/m 8,4 km/h (2 Bft)
07.08.2015 02:52 20,4 C 18,3 C 84 % 0 lf 1014,9 hPa 0,0 l/m 0 min 0 min 0 W/m 8,4 km/h (2 Bft)
07.08.2015 02:54 20,4 C 18,3 C 84 % 0 lf 1014,9 hPa 0,0 l/m 0 min 0 min 0 W/m 12,6 km/h (3 Bft)
07.08.2015 02:56 20,3 C 18,3 C 84 % 0 lf 1014,7 hPa 0,0 l/m 0 min 0 min 0 W/m 10,5 km/h (2 Bft)
07.08.2015 02:58 20,3 C 18,3 C 84 % 0 lf 1014,7 hPa 0,0 l/m 0 min 0 min 0 W/m 10,5 km/h (2 Bft)
07.08.2015 03:00 20,3 C 18,3 C 84 % 0 lf 1014,9 hPa 0,0 l/m 0 min 0 min 0 W/m 8,4 km/h (2 Bft)
07.08.2015 03:02 20,2 C 18,3 C 84 % 0 lf 1014,9 hPa 0,0 l/m 0 min 0 min 0 W/m 8,4 km/h (2 Bft)
07.08.2015 03:04 20,2 C 18,3 C 84 % 0 lf 1014,9 hPa 0,0 l/m 0 min 0 min 0 W/m 12,6 km/h (3 Bft)
07.08.2015 03:06 20,2 C 18,3 C 84 % 0 lf 1014,8 hPa 0,0 l/m 0 min 0 min 0 W/m 10,5 km/h (2 Bft)
07.08.2015 03:08 20,1 C 18,3 C 84 % 0 lf 1014,8 hPa 0,0 l/m 0 min 0 min 0 W/m 12,6 km/h (3 Bft)
07.08.2015 03:10 20,1 C 18,3 C 85 % 0 lf 1014,7 hPa 0,0 l/m 0 min 0 min 0 W/m 10,5 km/h (2 Bft)
07.08.2015 03:12 20,0 C 18,3 C 84 % 0 lf 1014,7 hPa 0,0 l/m 0 min 0 min 0 W/m 8,4 km/h (2 Bft)
07.08.2015 03:14 20,0 C 18,3 C 85 % 0 lf 1014,9 hPa 0,0 l/m 0 min 0 min 0 W/m 12,6 km/h (3 Bft)
07.08.2015 03:16 19,9 C 18,3 C 85 % 0 lf 1014,9 hPa 0,0 l/m 0 min 0 min 0 W/m 10,5 km/h (2 Bft)
07.08.2015 03:18 19,9 C 18,3 C 85 % 0 lf 1014,9 hPa 0,0 l/m 0 min 0 min 0 W/m 10,5 km/h (2 Bft)
07.08.2015 03:20 19,9 C 18,3 C 85 % 0 lf 1014,8 hPa 0,0 l/m 0 min 0 min 0 W/m 8,4 km/h (2 Bft)
07.08.2015 03:22 19,8 C 18,3 C 85 % 0 lf 1014,9 hPa 0,0 l/m 0 min 0 min 0 W/m 8,4 km/h (2 Bft)
07.08.2015 03:24 19,8 C 18,3 C 85 % 0 lf 1014,9 hPa 0,0 l/m 0 min 0 min 0 W/m 8,4 km/h (2 Bft)
07.08.2015 03:26 19,8 C 18,3 C 85 % 0 lf 1015,0 hPa 0,0 l/m 0 min 0 min 0 W/m 8,4 km/h (2 Bft)
07.08.2015 03:28 19,8 C 18,3 C 85 % 0 lf 1014,9 hPa 0,0 l/m 0 min 0 min 0 W/m 8,4 km/h (2 Bft)
07.08.2015 03:30 19,7 C 18,3 C 85 % 0 lf 1014,9 hPa 0,0 l/m 0 min 0 min 0 W/m 10,5 km/h (2 Bft)
07.08.2015 03:32 19,7 C 18,3 C 85 % 0 lf 1014,9 hPa 0,0 l/m 0 min 0 min 0 W/m 8,4 km/h (2 Bft)
07.08.2015 03:34 19,7 C 18,3 C 85 % 0 lf 1014,9 hPa 0,0 l/m 0 min 0 min 0 W/m 10,5 km/h (2 Bft)
07.08.2015 03:36 19,7 C 18,3 C 85 % 0 lf 1015,0 hPa 0,0 l/m 0 min 0 min 0 W/m 10,5 km/h (2 Bft)
07.08.2015 03:38 19,7 C 18,3 C 85 % 0 lf 1015,0 hPa 0,0 l/m 0 min 0 min 0 W/m 8,4 km/h (2 Bft)
07.08.2015 03:40 19,6 C 18,3 C 85 % 0 lf 1015,0 hPa 0,0 l/m 0 min 0 min 0 W/m 10,5 km/h (2 Bft)
07.08.2015 03:42 19,6 C 18,3 C 85 % 0 lf 1015,0 hPa 0,0 l/m 0 min 0 min 0 W/m 6,3 km/h (2 Bft)
07.08.2015 03:44 19,6 C 18,3 C 85 % 0 lf 1015,1 hPa 0,0 l/m 0 min 0 min 0 W/m 10,5 km/h (2 Bft)
07.08.2015 03:46 19,6 C 18,3 C 85 % 0 lf 1015,1 hPa 0,0 l/m 0 min 0 min 0 W/m 10,5 km/h (2 Bft)
07.08.2015 03:48 19,6 C 18,3 C 85 % 0 lf 1015,2 hPa 0,0 l/m 0 min 0 min 0 W/m 10,5 km/h (2 Bft)
07.08.2015 03:50 19,6 C 18,3 C 85 % 0 lf 1015,2 hPa 0,0 l/m 0 min 0 min 0 W/m 10,5 km/h (2 Bft)
07.08.2015 03:52 19,6 C 18,3 C 85 % 0 lf 1015,3 hPa 0,0 l/m 0 min 0 min 0 W/m 8,4 km/h (2 Bft)
07.08.2015 03:54 19,6 C 18,3 C 85 % 0 lf 1015,2 hPa 0,0 l/m 0 min 0 min 0 W/m 10,5 km/h (2 Bft)
07.08.2015 03:56 19,6 C 18,3 C 85 % 0 lf 1015,1 hPa 0,0 l/m 0 min 0 min 0 W/m 12,6 km/h (3 Bft)
07.08.2015 03:58 19,6 C 18,3 C 85 % 0 lf 1015,1 hPa 0,0 l/m 0 min 0 min 0 W/m 10,5 km/h (2 Bft)
07.08.2015 04:00 19,5 C 17,2 C 85 % 15 lf 1015,1 hPa 0,0 l/m 0 min 2 min 0 W/m 8,4 km/h (2 Bft)
07.08.2015 04:02 19,5 C 17,2 C 85 % 15 lf 1015,1 hPa 0,0 l/m 0 min 2 min 0 W/m 10,5 km/h (2 Bft)
07.08.2015 04:04 19,5 C 17,2 C 85 % 15 lf 1015,1 hPa 0,0 l/m 0 min 2 min 0 W/m 8,4 km/h (2 Bft)
07.08.2015 04:06 19,5 C 16,7 C 86 % 15 lf 1015,1 hPa 0,0 l/m 0 min 2 min 0 W/m 10,5 km/h (2 Bft)
07.08.2015 04:08 19,5 C 16,7 C 86 % 15 lf 1015,1 hPa 0,0 l/m 0 min 0 min 0 W/m 12,6 km/h (3 Bft)
07.08.2015 04:10 19,5 C 16,7 C 86 % 15 lf 1015,0 hPa 0,0 l/m 0 min 0 min 0 W/m 12,6 km/h (3 Bft)
07.08.2015 04:12 19,4 C 16,7 C 86 % 15 lf 1014,9 hPa 0,0 l/m 0 min 0 min 0 W/m 12,6 km/h (3 Bft)
07.08.2015 04:14 19,4 C 16,7 C 86 % 15 lf 1015,0 hPa 0,0 l/m 0 min 0 min 0 W/m 10,5 km/h (2 Bft)
07.08.2015 04:16 19,4 C 16,7 C 86 % 15 lf 1015,0 hPa 0,0 l/m 0 min 0 min 0 W/m 8,4 km/h (2 Bft)
07.08.2015 04:18 19,3 C 16,7 C 86 % 15 lf 1014,9 hPa 0,0 l/m 0 min 0 min 0 W/m 16,7 km/h (3 Bft)
07.08.2015 04:20 19,3 C 16,7 C 86 % 15 lf 1014,9 hPa 0,0 l/m 0 min 0 min 0 W/m 14,6 km/h (3 Bft)
07.08.2015 04:22 19,3 C 16,7 C 86 % 15 lf 1014,9 hPa 0,0 l/m 0 min 0 min 0 W/m 8,4 km/h (2 Bft)
07.08.2015 04:24 19,2 C 16,7 C 86 % 15 lf 1014,9 hPa 0,0 l/m 0 min 0 min 0 W/m 14,6 km/h (3 Bft)
07.08.2015 04:26 19,2 C 16,7 C 86 % 15 lf 1014,8 hPa 0,0 l/m 0 min 0 min 0 W/m 10,5 km/h (2 Bft)
07.08.2015 04:28 19,2 C 16,7 C 86 % 12 lf 1014,8 hPa 0,0 l/m 0 min 0 min 0 W/m 8,4 km/h (2 Bft)
07.08.2015 04:30 19,1 C 16,7 C 86 % 3 lf 1015,0 hPa 0,0 l/m 0 min 0 min 0 W/m 8,4 km/h (2 Bft)
07.08.2015 04:32 19,1 C 16,7 C 86 % 0 lf 1015,0 hPa 0,0 l/m 0 min 0 min 0 W/m 10,5 km/h (2 Bft)
07.08.2015 04:34 19,1 C 17,2 C 86 % 0 lf 1014,8 hPa 0,0 l/m 0 min 0 min 0 W/m 10,5 km/h (2 Bft)
07.08.2015 04:36 19,1 C 17,2 C 86 % 0 lf 1014,8 hPa 0,0 l/m 0 min 0 min 0 W/m 10,5 km/h (2 Bft)
07.08.2015 04:38 19,1 C 17,2 C 86 % 0 lf 1014,7 hPa 0,0 l/m 0 min 0 min 0 W/m 12,6 km/h (3 Bft)
07.08.2015 04:40 19,0 C 17,2 C 87 % 0 lf 1014,9 hPa 0,0 l/m 0 min 0 min 0 W/m 8,4 km/h (2 Bft)
07.08.2015 04:42 19,0 C 17,2 C 87 % 0 lf 1014,9 hPa 0,0 l/m 0 min 0 min 0 W/m 6,3 km/h (2 Bft)
07.08.2015 04:44 19,0 C 17,2 C 87 % 0 lf 1014,9 hPa 0,0 l/m 0 min 0 min 0 W/m 6,3 km/h (2 Bft)
07.08.2015 04:46 18,9 C 17,2 C 87 % 0 lf 1014,9 hPa 0,0 l/m 0 min 0 min 0 W/m 8,4 km/h (2 Bft)
07.08.2015 04:48 18,9 C 17,2 C 87 % 0 lf 1014,9 hPa 0,0 l/m 0 min 0 min 0 W/m 10,5 km/h (2 Bft)
07.08.2015 04:50 18,9 C 17,2 C 87 % 0 lf 1014,9 hPa 0,0 l/m 0 min 0 min 0 W/m 10,5 km/h (2 Bft)
07.08.2015 04:52 18,9 C 17,2 C 87 % 0 lf 1014,9 hPa 0,0 l/m 0 min 0 min 0 W/m 14,6 km/h (3 Bft)
07.08.2015 04:54 18,9 C 17,2 C 87 % 0 lf 1014,8 hPa 0,0 l/m 0 min 0 min 0 W/m 12,6 km/h (3 Bft)
07.08.2015 04:56 18,9 C 17,2 C 87 % 0 lf 1014,8 hPa 0,0 l/m 0 min 0 min 0 W/m 14,6 km/h (3 Bft)
07.08.2015 04:58 18,9 C 17,2 C 87 % 0 lf 1014,9 hPa 0,0 l/m 0 min 0 min 0 W/m 12,6 km/h (3 Bft)
07.08.2015 05:00 18,8 C 17,2 C 87 % 0 lf 1014,9 hPa 0,0 l/m 0 min 0 min 0 W/m 12,6 km/h (3 Bft)
07.08.2015 05:02 18,8 C 17,2 C 87 % 0 lf 1014,9 hPa 0,0 l/m 0 min 0 min 0 W/m 10,5 km/h (2 Bft)
07.08.2015 05:04 18,8 C 17,2 C 87 % 0 lf 1014,9 hPa 0,0 l/m 0 min 0 min 0 W/m 14,6 km/h (3 Bft)
07.08.2015 05:06 18,8 C 17,2 C 87 % 0 lf 1015,2 hPa 0,0 l/m 0 min 0 min 0 W/m 14,6 km/h (3 Bft)
07.08.2015 05:08 18,8 C 17,2 C 87 % 0 lf 1015,3 hPa 0,0 l/m 0 min 0 min 0 W/m 10,5 km/h (2 Bft)
07.08.2015 05:10 18,8 C 17,2 C 87 % 0 lf 1015,6 hPa 0,0 l/m 0 min 0 min 0 W/m 14,6 km/h (3 Bft)
07.08.2015 05:12 18,7 C 17,2 C 87 % 0 lf 1015,9 hPa 0,0 l/m 0 min 0 min 0 W/m 18,8 km/h (3 Bft)
07.08.2015 05:14 18,7 C 17,2 C 87 % 0 lf 1016,2 hPa 0,0 l/m 0 min 0 min 0 W/m 12,6 km/h (3 Bft)
07.08.2015 05:16 18,7 C 17,2 C 87 % 0 lf 1016,4 hPa 0,0 l/m 0 min 0 min 0 W/m 8,4 km/h (2 Bft)
07.08.2015 05:18 18,7 C 17,2 C 87 % 0 lf 1016,1 hPa 0,0 l/m 0 min 0 min 0 W/m 12,6 km/h (3 Bft)
07.08.2015 05:20 18,7 C 16,1 C 87 % 15 lf 1015,7 hPa 0,6 l/m 0 min 2 min 0 W/m 16,7 km/h (3 Bft)
07.08.2015 05:22 18,7 C 15,6 C 88 % 15 lf 1015,6 hPa 1,4 l/m 0 min 2 min 0 W/m 23,0 km/h (4 Bft)
07.08.2015 05:24 18,7 C 15,6 C 88 % 15 lf 1015,9 hPa 1,0 l/m 0 min 2 min 0 W/m 12,6 km/h (3 Bft)
07.08.2015 05:26 18,7 C 16,1 C 89 % 15 lf 1016,2 hPa 0,6 l/m 0 min 2 min 0 W/m 18,8 km/h (3 Bft)
07.08.2015 05:28 18,7 C 16,1 C 89 % 15 lf 1016,1 hPa 0,0 l/m 0 min 2 min 0 W/m 12,6 km/h (3 Bft)
07.08.2015 05:30 18,6 C 16,1 C 89 % 15 lf 1016,2 hPa 0,2 l/m 0 min 2 min 0 W/m 14,6 km/h (3 Bft)
07.08.2015 05:32 18,6 C 16,1 C 89 % 15 lf 1016,5 hPa 0,0 l/m 0 min 2 min 0 W/m 12,6 km/h (3 Bft)
07.08.2015 05:34 18,6 C 16,1 C 89 % 15 lf 1016,5 hPa 0,0 l/m 0 min 0 min 0 W/m 12,6 km/h (3 Bft)
07.08.2015 05:36 18,5 C 16,1 C 90 % 15 lf 1016,2 hPa 0,0 l/m 0 min 0 min 0 W/m 14,6 km/h (3 Bft)
07.08.2015 05:38 18,4 C 16,1 C 90 % 15 lf 1016,1 hPa 0,0 l/m 0 min 0 min 0 W/m 12,6 km/h (3 Bft)
07.08.2015 05:40 18,4 C 16,1 C 90 % 15 lf 1016,9 hPa 0,0 l/m 0 min 0 min 0 W/m 10,5 km/h (2 Bft)
07.08.2015 05:42 18,3 C 16,1 C 90 % 15 lf 1017,2 hPa 0,0 l/m 0 min 0 min 0 W/m 10,5 km/h (2 Bft)
07.08.2015 05:44 18,3 C 16,1 C 91 % 15 lf 1017,4 hPa 0,0 l/m 0 min 2 min 0 W/m 8,4 km/h (2 Bft)
07.08.2015 05:46 18,3 C 16,1 C 91 % 15 lf 1017,0 hPa 1,0 l/m 0 min 2 min 0 W/m 10,5 km/h (2 Bft)
07.08.2015 05:48 18,2 C 16,1 C 91 % 15 lf 1016,5 hPa 2,2 l/m 0 min 2 min 0 W/m 16,7 km/h (3 Bft)
07.08.2015 05:50 18,2 C 15,6 C 91 % 15 lf 1016,0 hPa 0,6 l/m 0 min 2 min 0 W/m 20,9 km/h (4 Bft)
07.08.2015 05:52 18,2 C 16,1 C 91 % 15 lf 1015,9 hPa 0,2 l/m 0 min 2 min 0 W/m 18,8 km/h (3 Bft)
07.08.2015 05:54 18,1 C 16,1 C 92 % 15 lf 1015,8 hPa 0,2 l/m 0 min 2 min 0 W/m 29,3 km/h (5 Bft)
07.08.2015 05:56 18,1 C 16,1 C 92 % 15 lf 1015,9 hPa 0,0 l/m 0 min 2 min 0 W/m 18,8 km/h (3 Bft)
07.08.2015 05:58 18,1 C 16,1 C 92 % 15 lf 1016,2 hPa 0,0 l/m 0 min 2 min 0 W/m 14,6 km/h (3 Bft)
07.08.2015 06:00 18,0 C 16,1 C 92 % 15 lf 1016,0 hPa 0,0 l/m 0 min 2 min 0 W/m 20,9 km/h (4 Bft)
07.08.2015 06:02 17,9 C 16,1 C 92 % 15 lf 1015,7 hPa 0,0 l/m 0 min 0 min 0 W/m 18,8 km/h (3 Bft)
07.08.2015 06:05 17,9 C 16,1 C 93 % 15 lf 1015,8 hPa 0,0 l/m 0 min 2 min 0 W/m 14,6 km/h (3 Bft)
07.08.2015 06:08 17,9 C 16,1 C 93 % 15 lf 1015,7 hPa 0,0 l/m 0 min 0 min 0 W/m 16,7 km/h (3 Bft)
07.08.2015 06:10 17,9 C 16,1 C 93 % 15 lf 1015,5 hPa 0,0 l/m 0 min 0 min 0 W/m 16,7 km/h (3 Bft)
07.08.2015 06:12 17,8 C 16,1 C 93 % 15 lf 1015,8 hPa 0,0 l/m 0 min 0 min 0 W/m 18,8 km/h (3 Bft)
07.08.2015 06:14 17,8 C 16,1 C 93 % 15 lf 1015,7 hPa 0,0 l/m 0 min 0 min 0 W/m 14,6 km/h (3 Bft)
07.08.2015 06:16 17,8 C 16,1 C 93 % 15 lf 1015,5 hPa 0,0 l/m 0 min 0 min 0 W/m 23,0 km/h (4 Bft)
07.08.2015 06:18 17,8 C 16,1 C 94 % 15 lf 1015,3 hPa 0,0 l/m 0 min 0 min 0 W/m 27,2 km/h (4 Bft)
07.08.2015 06:20 17,8 C 16,1 C 94 % 15 lf 1015,3 hPa 0,0 l/m 0 min 0 min 0 W/m 20,9 km/h (4 Bft)
07.08.2015 06:22 17,8 C 16,1 C 94 % 15 lf 1015,5 hPa 0,0 l/m 0 min 0 min 0 W/m 20,9 km/h (4 Bft)
07.08.2015 06:24 17,8 C 16,1 C 94 % 15 lf 1015,3 hPa 0,0 l/m 0 min 0 min 4 W/m 20,9 km/h (4 Bft)
07.08.2015 06:26 17,8 C 16,1 C 94 % 15 lf 1015,4 hPa 0,0 l/m 0 min 0 min 5 W/m 16,7 km/h (3 Bft)
07.08.2015 06:28 17,8 C 16,1 C 94 % 15 lf 1015,3 hPa 0,0 l/m 0 min 0 min 5 W/m 14,6 km/h (3 Bft)
07.08.2015 06:30 17,8 C 16,1 C 94 % 15 lf 1015,4 hPa 0,0 l/m 0 min 0 min 5 W/m 20,9 km/h (4 Bft)
07.08.2015 06:32 17,8 C 16,1 C 94 % 15 lf 1015,6 hPa 0,0 l/m 0 min 0 min 5 W/m 18,8 km/h (3 Bft)
07.08.2015 06:34 17,8 C 16,1 C 95 % 15 lf 1015,6 hPa 0,0 l/m 0 min 0 min 6 W/m 16,7 km/h (3 Bft)
07.08.2015 06:36 17,9 C 16,1 C 95 % 15 lf 1015,5 hPa 0,0 l/m 0 min 0 min 7 W/m 23,0 km/h (4 Bft)
07.08.2015 06:38 17,9 C 16,7 C 95 % 15 lf 1015,3 hPa 0,0 l/m 0 min 0 min 9 W/m 16,7 km/h (3 Bft)
07.08.2015 06:40 17,9 C 16,7 C 95 % 15 lf 1015,4 hPa 0,0 l/m 0 min 0 min 8 W/m 16,7 km/h (3 Bft)
07.08.2015 06:42 17,9 C 16,7 C 95 % 15 lf 1015,5 hPa 0,0 l/m 0 min 0 min 8 W/m 6,3 km/h (2 Bft)
07.08.2015 06:44 17,9 C 16,7 C 95 % 15 lf 1015,4 hPa 0,0 l/m 0 min 0 min 9 W/m 14,6 km/h (3 Bft)
07.08.2015 06:46 17,9 C 16,7 C 95 % 15 lf 1015,5 hPa 0,0 l/m 0 min 0 min 9 W/m 10,5 km/h (2 Bft)
07.08.2015 06:48 17,9 C 16,7 C 95 % 15 lf 1015,6 hPa 0,0 l/m 0 min 0 min 9 W/m 16,7 km/h (3 Bft)
07.08.2015 06:50 17,9 C 16,7 C 95 % 15 lf 1015,6 hPa 0,0 l/m 0 min 0 min 9 W/m 10,5 km/h (2 Bft)
07.08.2015 06:52 17,9 C 16,7 C 95 % 15 lf 1015,5 hPa 0,0 l/m 0 min 0 min 9 W/m 18,8 km/h (3 Bft)
07.08.2015 06:54 17,9 C 16,7 C 95 % 15 lf 1015,4 hPa 0,0 l/m 0 min 0 min 12 W/m 16,7 km/h (3 Bft)
07.08.2015 06:56 17,9 C 16,7 C 95 % 15 lf 1015,7 hPa 0,0 l/m 0 min 0 min 14 W/m 8,4 km/h (2 Bft)
07.08.2015 06:58 17,9 C 16,1 C 95 % 15 lf 1015,8 hPa 0,0 l/m 0 min 0 min 14 W/m 8,4 km/h (2 Bft)
07.08.2015 07:00 17,9 C 16,7 C 95 % 15 lf 1015,9 hPa 0,0 l/m 0 min 0 min 16 W/m 8,4 km/h (2 Bft)
07.08.2015 07:02 17,9 C 16,7 C 95 % 15 lf 1015,8 hPa 0,0 l/m 0 min 0 min 15 W/m 10,5 km/h (2 Bft)
07.08.2015 07:04 17,9 C 16,7 C 95 % 15 lf 1015,8 hPa 0,0 l/m 0 min 0 min 14 W/m 10,5 km/h (2 Bft)
07.08.2015 07:06 17,9 C 16,7 C 96 % 15 lf 1015,8 hPa 0,0 l/m 0 min 0 min 16 W/m 6,3 km/h (2 Bft)
07.08.2015 07:08 18,0 C 16,7 C 96 % 15 lf 1015,9 hPa 0,0 l/m 0 min 0 min 18 W/m 6,3 km/h (2 Bft)
07.08.2015 07:10 18,0 C 16,7 C 96 % 15 lf 1016,1 hPa 0,0 l/m 0 min 0 min 20 W/m 10,5 km/h (2 Bft)
07.08.2015 07:12 18,0 C 16,7 C 96 % 15 lf 1016,2 hPa 0,0 l/m 0 min 0 min 25 W/m 8,4 km/h (2 Bft)
07.08.2015 07:14 18,0 C 16,7 C 96 % 15 lf 1016,3 hPa 0,0 l/m 0 min 0 min 19 W/m 4,2 km/h (1 Bft)
07.08.2015 07:16 18,0 C 16,7 C 96 % 15 lf 1016,3 hPa 0,0 l/m 0 min 0 min 13 W/m 8,4 km/h (2 Bft)
07.08.2015 07:18 18,1 C 16,7 C 96 % 15 lf 1016,3 hPa 0,0 l/m 0 min 0 min 12 W/m 8,4 km/h (2 Bft)
07.08.2015 07:20 18,1 C 16,7 C 96 % 15 lf 1016,1 hPa 0,0 l/m 0 min 0 min 18 W/m 8,4 km/h (2 Bft)
07.08.2015 07:22 18,1 C 16,7 C 96 % 15 lf 1015,9 hPa 0,0 l/m 0 min 2 min 32 W/m 10,5 km/h (2 Bft)
07.08.2015 07:24 18,1 C 16,7 C 96 % 15 lf 1016,1 hPa 0,2 l/m 0 min 2 min 42 W/m 8,4 km/h (2 Bft)
07.08.2015 07:26 18,1 C 16,7 C 96 % 15 lf 1016,4 hPa 0,0 l/m 0 min 2 min 38 W/m 8,4 km/h (2 Bft)
07.08.2015 07:28 18,1 C 16,7 C 96 % 15 lf 1016,4 hPa 0,2 l/m 0 min 2 min 40 W/m 8,4 km/h (2 Bft)
07.08.2015 07:30 18,1 C 16,7 C 96 % 15 lf 1016,4 hPa 0,0 l/m 0 min 2 min 42 W/m 4,2 km/h (1 Bft)
07.08.2015 07:32 18,1 C 16,7 C 96 % 15 lf 1016,5 hPa 0,0 l/m 0 min 2 min 35 W/m 6,3 km/h (2 Bft)
07.08.2015 07:34 18,1 C 16,7 C 96 % 15 lf 1016,8 hPa 0,0 l/m 0 min 2 min 19 W/m 4,2 km/h (1 Bft)
07.08.2015 07:36 18,1 C 16,7 C 96 % 15 lf 1017,2 hPa 0,0 l/m 0 min 0 min 11 W/m 10,5 km/h (2 Bft)
07.08.2015 07:38 18,1 C 16,7 C 96 % 15 lf 1017,1 hPa 0,0 l/m 0 min 0 min 12 W/m 8,4 km/h (2 Bft)
07.08.2015 07:40 18,1 C 16,7 C 96 % 15 lf 1016,9 hPa 0,0 l/m 0 min 0 min 18 W/m 4,2 km/h (1 Bft)
07.08.2015 07:42 18,1 C 16,7 C 96 % 15 lf 1016,8 hPa 0,0 l/m 0 min 0 min 31 W/m 6,3 km/h (2 Bft)
07.08.2015 07:44 18,1 C 16,7 C 96 % 15 lf 1016,4 hPa 0,0 l/m 0 min 2 min 52 W/m 8,4 km/h (2 Bft)
07.08.2015 07:46 18,1 C 16,7 C 96 % 15 lf 1016,2 hPa 0,0 l/m 0 min 0 min 68 W/m 10,5 km/h (2 Bft)
07.08.2015 07:48 18,1 C 16,7 C 96 % 15 lf 1016,1 hPa 0,0 l/m 0 min 0 min 67 W/m 12,6 km/h (3 Bft)
07.08.2015 07:50 18,1 C 16,7 C 96 % 15 lf 1016,1 hPa 0,0 l/m 0 min 0 min 56 W/m 12,6 km/h (3 Bft)
07.08.2015 07:52 18,1 C 16,7 C 96 % 15 lf 1016,2 hPa 0,0 l/m 0 min 0 min 46 W/m 8,4 km/h (2 Bft)
07.08.2015 07:54 18,2 C 16,7 C 96 % 15 lf 1016,3 hPa 0,0 l/m 0 min 0 min 40 W/m 8,4 km/h (2 Bft)
07.08.2015 07:56 18,2 C 16,7 C 96 % 15 lf 1016,5 hPa 0,0 l/m 0 min 0 min 45 W/m 8,4 km/h (2 Bft)
07.08.2015 07:58 18,2 C 16,7 C 96 % 15 lf 1016,6 hPa 0,0 l/m 0 min 0 min 51 W/m 10,5 km/h (2 Bft)
07.08.2015 08:00 18,2 C 16,7 C 96 % 15 lf 1016,6 hPa 0,0 l/m 0 min 0 min 46 W/m 10,5 km/h (2 Bft)
07.08.2015 08:02 18,2 C 16,7 C 96 % 15 lf 1016,5 hPa 0,0 l/m 0 min 0 min 45 W/m 12,6 km/h (3 Bft)
07.08.2015 08:04 18,2 C 16,7 C 96 % 15 lf 1016,2 hPa 0,0 l/m 0 min 0 min 57 W/m 14,6 km/h (3 Bft)
07.08.2015 08:06 18,2 C 16,7 C 96 % 15 lf 1015,9 hPa 0,0 l/m 0 min 0 min 57 W/m 18,8 km/h (3 Bft)
07.08.2015 08:08 18,3 C 16,7 C 96 % 15 lf 1015,7 hPa 0,0 l/m 0 min 0 min 52 W/m 14,6 km/h (3 Bft)
07.08.2015 08:10 18,3 C 17,2 C 96 % 15 lf 1015,6 hPa 0,0 l/m 0 min 0 min 45 W/m 16,7 km/h (3 Bft)
07.08.2015 08:12 18,3 C 17,2 C 96 % 15 lf 1015,5 hPa 0,0 l/m 0 min 0 min 49 W/m 16,7 km/h (3 Bft)
07.08.2015 08:14 18,3 C 17,2 C 96 % 15 lf 1015,3 hPa 0,0 l/m 0 min 0 min 56 W/m 16,7 km/h (3 Bft)
07.08.2015 08:16 18,4 C 17,2 C 96 % 15 lf 1015,2 hPa 0,0 l/m 0 min 0 min 65 W/m 23,0 km/h (4 Bft)
07.08.2015 08:18 18,4 C 17,2 C 96 % 15 lf 1015,1 hPa 0,0 l/m 0 min 0 min 74 W/m 23,0 km/h (4 Bft)
07.08.2015 08:20 18,4 C 17,2 C 97 % 15 lf 1014,7 hPa 0,0 l/m 0 min 0 min 84 W/m 16,7 km/h (3 Bft)
07.08.2015 08:22 18,4 C 17,2 C 97 % 15 lf 1014,7 hPa 0,0 l/m 0 min 0 min 90 W/m 25,1 km/h (4 Bft)
07.08.2015 08:24 18,5 C 17,2 C 97 % 15 lf 1014,7 hPa 0,0 l/m 0 min 0 min 98 W/m 16,7 km/h (3 Bft)
07.08.2015 08:26 18,6 C 17,2 C 97 % 15 lf 1014,6 hPa 0,0 l/m 0 min 0 min 98 W/m 18,8 km/h (3 Bft)
07.08.2015 08:28 18,6 C 17,2 C 97 % 15 lf 1014,5 hPa 0,0 l/m 0 min 0 min 96 W/m 18,8 km/h (3 Bft)
07.08.2015 08:30 18,6 C 17,2 C 97 % 15 lf 1014,5 hPa 0,0 l/m 0 min 0 min 87 W/m 14,6 km/h (3 Bft)
07.08.2015 08:32 18,6 C 17,2 C 97 % 15 lf 1014,5 hPa 0,0 l/m 0 min 0 min 80 W/m 25,1 km/h (4 Bft)
07.08.2015 08:34 18,6 C 17,2 C 97 % 15 lf 1014,5 hPa 0,2 l/m 0 min 0 min 75 W/m 27,2 km/h (4 Bft)
07.08.2015 08:36 18,6 C 17,2 C 97 % 15 lf 1014,6 hPa 0,0 l/m 0 min 0 min 70 W/m 27,2 km/h (4 Bft)
07.08.2015 08:38 18,6 C 17,2 C 97 % 15 lf 1014,7 hPa 0,0 l/m 0 min 0 min 70 W/m 10,5 km/h (2 Bft)
07.08.2015 08:40 18,6 C 17,2 C 97 % 15 lf 1014,9 hPa 0,0 l/m 0 min 0 min 67 W/m 14,6 km/h (3 Bft)
07.08.2015 08:42 18,7 C 17,2 C 97 % 15 lf 1015,0 hPa 0,0 l/m 0 min 0 min 75 W/m 14,6 km/h (3 Bft)
07.08.2015 08:44 18,7 C 17,2 C 97 % 15 lf 1014,9 hPa 0,0 l/m 0 min 0 min 93 W/m 12,6 km/h (3 Bft)
07.08.2015 08:46 18,7 C 17,8 C 97 % 15 lf 1014,8 hPa 0,0 l/m 0 min 0 min 121 W/m 16,7 km/h (3 Bft)
07.08.2015 08:48 18,7 C 17,8 C 97 % 15 lf 1014,8 hPa 0,0 l/m 0 min 0 min 137 W/m 16,7 km/h (3 Bft)
07.08.2015 08:50 18,7 C 17,8 C 97 % 15 lf 1014,7 hPa 0,0 l/m 0 min 0 min 150 W/m 18,8 km/h (3 Bft)
07.08.2015 08:52 18,8 C 17,8 C 97 % 15 lf 1014,8 hPa 0,0 l/m 0 min 0 min 156 W/m 23,0 km/h (4 Bft)
07.08.2015 08:54 18,8 C 17,8 C 97 % 15 lf 1014,9 hPa 0,0 l/m 0 min 0 min 166 W/m 23,0 km/h (4 Bft)
07.08.2015 08:56 18,8 C 17,8 C 97 % 15 lf 1015,0 hPa 0,0 l/m 0 min 0 min 171 W/m 27,2 km/h (4 Bft)
07.08.2015 08:58 18,8 C 17,8 C 97 % 15 lf 1015,0 hPa 0,0 l/m 0 min 0 min 189 W/m 10,5 km/h (2 Bft)
07.08.2015 09:00 18,9 C 17,8 C 97 % 15 lf 1015,3 hPa 0,0 l/m 2 min 0 min 378 W/m 10,5 km/h (2 Bft)
07.08.2015 09:02 18,9 C 17,8 C 97 % 15 lf 1015,3 hPa 0,0 l/m 2 min 0 min 274 W/m 12,6 km/h (3 Bft)
07.08.2015 09:04 18,9 C 17,8 C 97 % 15 lf 1015,1 hPa 0,0 l/m 0 min 0 min 117 W/m 18,8 km/h (3 Bft)
07.08.2015 09:06 19,0 C 17,8 C 97 % 15 lf 1014,8 hPa 0,0 l/m 0 min 0 min 107 W/m 14,6 km/h (3 Bft)
07.08.2015 09:08 19,0 C 17,8 C 97 % 15 lf 1014,8 hPa 0,0 l/m 0 min 0 min 129 W/m 14,6 km/h (3 Bft)
07.08.2015 09:10 19,1 C 17,8 C 97 % 15 lf 1014,9 hPa 0,0 l/m 0 min 0 min 168 W/m 6,3 km/h (2 Bft)
07.08.2015 09:12 19,1 C 18,3 C 97 % 15 lf 1015,0 hPa 0,0 l/m 0 min 0 min 219 W/m 14,6 km/h (3 Bft)
07.08.2015 09:14 19,2 C 17,8 C 97 % 15 lf 1015,2 hPa 0,0 l/m 0 min 0 min 187 W/m 8,4 km/h (2 Bft)
07.08.2015 09:16 19,2 C 18,3 C 97 % 15 lf 1015,2 hPa 0,0 l/m 0 min 0 min 177 W/m 10,5 km/h (2 Bft)
07.08.2015 09:18 19,2 C 18,3 C 97 % 15 lf 1015,2 hPa 0,0 l/m 0 min 0 min 191 W/m 12,6 km/h (3 Bft)
07.08.2015 09:20 19,2 C 18,3 C 97 % 15 lf 1015,2 hPa 0,0 l/m 0 min 0 min 204 W/m 12,6 km/h (3 Bft)
07.08.2015 09:22 19,3 C 18,3 C 97 % 15 lf 1015,2 hPa 0,0 l/m 0 min 0 min 192 W/m 4,2 km/h (1 Bft)
07.08.2015 09:24 19,3 C 18,3 C 97 % 15 lf 1015,3 hPa 0,0 l/m 0 min 0 min 177 W/m 10,5 km/h (2 Bft)
07.08.2015 09:26 19,4 C 18,3 C 97 % 14 lf 1015,3 hPa 0,0 l/m 0 min 0 min 160 W/m 14,6 km/h (3 Bft)
07.08.2015 09:28 19,4 C 18,3 C 97 % 13 lf 1015,2 hPa 0,0 l/m 0 min 0 min 156 W/m 8,4 km/h (2 Bft)
07.08.2015 09:30 19,4 C 18,3 C 97 % 14 lf 1015,3 hPa 0,0 l/m 0 min 0 min 161 W/m 4,2 km/h (1 Bft)
07.08.2015 09:32 19,5 C 18,3 C 97 % 12 lf 1015,3 hPa 0,0 l/m 0 min 0 min 177 W/m 16,7 km/h (3 Bft)
07.08.2015 09:34 19,6 C 18,3 C 97 % 15 lf 1015,2 hPa 0,0 l/m 0 min 2 min 201 W/m 6,3 km/h (2 Bft)
07.08.2015 09:36 19,6 C 18,9 C 98 % 15 lf 1015,2 hPa 0,0 l/m 0 min 2 min 207 W/m 10,5 km/h (2 Bft)
07.08.2015 09:38 19,7 C 18,9 C 98 % 15 lf 1015,2 hPa 0,0 l/m 0 min 2 min 217 W/m 12,6 km/h (3 Bft)
07.08.2015 09:40 19,7 C 18,9 C 98 % 14 lf 1015,2 hPa 0,0 l/m 0 min 0 min 226 W/m 16,7 km/h (3 Bft)
07.08.2015 09:42 19,8 C 18,3 C 97 % 13 lf 1015,2 hPa 0,0 l/m 0 min 0 min 234 W/m 16,7 km/h (3 Bft)
07.08.2015 09:44 19,8 C 18,9 C 97 % 11 lf 1015,3 hPa 0,0 l/m 0 min 0 min 248 W/m 10,5 km/h (2 Bft)
07.08.2015 09:46 19,8 C 18,9 C 97 % 6 lf 1015,2 hPa 0,0 l/m 0 min 0 min 239 W/m 8,4 km/h (2 Bft)
07.08.2015 09:48 19,9 C 18,3 C 97 % 2 lf 1015,2 hPa 0,0 l/m 0 min 0 min 245 W/m 8,4 km/h (2 Bft)
07.08.2015 09:50 19,9 C 18,3 C 97 % 1 lf 1015,4 hPa 0,0 l/m 0 min 0 min 220 W/m 8,4 km/h (2 Bft)
07.08.2015 09:52 19,9 C 18,3 C 97 % 0 lf 1015,4 hPa 0,0 l/m 0 min 0 min 197 W/m 12,6 km/h (3 Bft)
07.08.2015 09:54 19,9 C 18,9 C 97 % 0 lf 1015,4 hPa 0,0 l/m 0 min 0 min 239 W/m 6,3 km/h (2 Bft)
07.08.2015 09:56 20,0 C 18,9 C 97 % 0 lf 1015,4 hPa 0,0 l/m 0 min 0 min 182 W/m 10,5 km/h (2 Bft)
07.08.2015 09:58 20,0 C 18,9 C 97 % 0 lf 1015,4 hPa 0,0 l/m 0 min 0 min 237 W/m 8,4 km/h (2 Bft)
07.08.2015 10:00 20,1 C 18,9 C 97 % 0 lf 1015,5 hPa 0,0 l/m 0 min 0 min 264 W/m 6,3 km/h (2 Bft)
07.08.2015 10:02 20,2 C 20,0 C 97 % 0 lf 1015,6 hPa 0,0 l/m 2 min 0 min 429 W/m 8,4 km/h (2 Bft)
07.08.2015 10:04 20,2 C 20,6 C 97 % 0 lf 1015,7 hPa 0,0 l/m 2 min 0 min 656 W/m 6,3 km/h (2 Bft)
07.08.2015 10:06 20,4 C 21,7 C 97 % 0 lf 1015,7 hPa 0,0 l/m 2 min 0 min 653 W/m 8,4 km/h (2 Bft)
07.08.2015 10:08 20,6 C 21,7 C 97 % 0 lf 1015,6 hPa 0,0 l/m 2 min 0 min 637 W/m 6,3 km/h (2 Bft)
07.08.2015 10:10 20,8 C 21,7 C 97 % 0 lf 1015,6 hPa 0,0 l/m 2 min 0 min 620 W/m 10,5 km/h (2 Bft)
07.08.2015 10:12 21,0 C 21,7 C 97 % 0 lf 1015,6 hPa 0,0 l/m 2 min 0 min 600 W/m 6,3 km/h (2 Bft)
07.08.2015 10:14 21,1 C 21,1 C 97 % 0 lf 1015,7 hPa 0,0 l/m 2 min 0 min 511 W/m 8,4 km/h (2 Bft)
07.08.2015 10:16 21,2 C 20,6 C 97 % 0 lf 1015,7 hPa 0,0 l/m 2 min 0 min 560 W/m 8,4 km/h (2 Bft)
07.08.2015 10:18 21,4 C 21,1 C 97 % 0 lf 1015,7 hPa 0,0 l/m 2 min 0 min 515 W/m 10,5 km/h (2 Bft)
07.08.2015 10:20 21,4 C 20,0 C 97 % 0 lf 1015,8 hPa 0,0 l/m 2 min 0 min 389 W/m 10,5 km/h (2 Bft)
07.08.2015 10:22 21,5 C 19,4 C 96 % 0 lf 1015,7 hPa 0,0 l/m 0 min 0 min 234 W/m 12,6 km/h (3 Bft)
07.08.2015 10:24 21,6 C 20,0 C 95 % 0 lf 1015,7 hPa 0,0 l/m 0 min 0 min 234 W/m 6,3 km/h (2 Bft)
07.08.2015 10:26 21,7 C 20,0 C 95 % 0 lf 1015,7 hPa 0,0 l/m 2 min 0 min 403 W/m 8,4 km/h (2 Bft)
07.08.2015 10:28 21,8 C 20,0 C 95 % 0 lf 1015,7 hPa 0,0 l/m 2 min 0 min 387 W/m 8,4 km/h (2 Bft)
07.08.2015 10:30 21,9 C 19,4 C 94 % 0 lf 1015,7 hPa 0,0 l/m 0 min 0 min 192 W/m 4,2 km/h (1 Bft)
07.08.2015 10:32 21,9 C 20,0 C 93 % 0 lf 1015,7 hPa 0,0 l/m 0 min 0 min 218 W/m 10,5 km/h (2 Bft)
07.08.2015 10:34 22,0 C 20,0 C 93 % 0 lf 1015,7 hPa 0,0 l/m 0 min 0 min 251 W/m 6,3 km/h (2 Bft)
07.08.2015 10:36 22,1 C 20,0 C 92 % 0 lf 1015,8 hPa 0,0 l/m 0 min 0 min 272 W/m 10,5 km/h (2 Bft)
07.08.2015 10:38 22,1 C 20,0 C 91 % 0 lf 1015,8 hPa 0,0 l/m 0 min 0 min 272 W/m 10,5 km/h (2 Bft)
07.08.2015 10:40 22,2 C 19,4 C 91 % 0 lf 1015,8 hPa 0,0 l/m 2 min 0 min 333 W/m 8,4 km/h (2 Bft)
07.08.2015 10:42 22,2 C 20,0 C 89 % 0 lf 1015,8 hPa 0,0 l/m 2 min 0 min 623 W/m 6,3 km/h (2 Bft)
07.08.2015 10:44 22,3 C 20,0 C 89 % 0 lf 1015,8 hPa 0,0 l/m 2 min 0 min 659 W/m 6,3 km/h (2 Bft)
07.08.2015 10:46 22,4 C 20,0 C 89 % 0 lf 1015,9 hPa 0,0 l/m 2 min 0 min 658 W/m 10,5 km/h (2 Bft)
07.08.2015 10:48 22,6 C 20,0 C 88 % 0 lf 1015,9 hPa 0,0 l/m 2 min 0 min 625 W/m 6,3 km/h (2 Bft)
07.08.2015 10:50 22,6 C 20,0 C 87 % 0 lf 1015,9 hPa 0,0 l/m 2 min 0 min 629 W/m 8,4 km/h (2 Bft)
07.08.2015 10:52 22,7 C 20,0 C 87 % 0 lf 1015,9 hPa 0,0 l/m 2 min 0 min 648 W/m 8,4 km/h (2 Bft)
07.08.2015 10:54 22,8 C 20,6 C 86 % 0 lf 1015,8 hPa 0,0 l/m 2 min 0 min 653 W/m 8,4 km/h (2 Bft)
07.08.2015 10:56 22,9 C 20,6 C 86 % 0 lf 1015,8 hPa 0,0 l/m 2 min 0 min 638 W/m 12,6 km/h (3 Bft)
07.08.2015 10:58 23,1 C 21,1 C 86 % 0 lf 1015,9 hPa 0,0 l/m 2 min 0 min 645 W/m 6,3 km/h (2 Bft)
07.08.2015 11:00 23,2 C 21,7 C 86 % 0 lf 1015,8 hPa 0,0 l/m 2 min 0 min 666 W/m 6,3 km/h (2 Bft)
07.08.2015 11:02 23,3 C 21,1 C 85 % 0 lf 1015,9 hPa 0,0 l/m 2 min 0 min 662 W/m 10,5 km/h (2 Bft)
07.08.2015 11:04 23,3 C 20,0 C 84 % 0 lf 1015,8 hPa 0,0 l/m 2 min 0 min 408 W/m 10,5 km/h (2 Bft)
07.08.2015 11:06 23,4 C 20,6 C 83 % 0 lf 1015,8 hPa 0,0 l/m 2 min 0 min 618 W/m 4,2 km/h (1 Bft)
07.08.2015 11:08 23,5 C 20,6 C 83 % 0 lf 1015,8 hPa 0,0 l/m 2 min 0 min 710 W/m 4,2 km/h (1 Bft)
07.08.2015 11:10 23,6 C 20,6 C 82 % 0 lf 1015,8 hPa 0,0 l/m 2 min 0 min 715 W/m 2,1 km/h (1 Bft)
07.08.2015 11:12 23,7 C 21,1 C 82 % 0 lf 1015,8 hPa 0,0 l/m 2 min 0 min 711 W/m 6,3 km/h (2 Bft)
07.08.2015 11:14 23,8 C 21,1 C 83 % 0 lf 1015,8 hPa 0,0 l/m 2 min 0 min 712 W/m 8,4 km/h (2 Bft)
07.08.2015 11:16 23,9 C 21,7 C 83 % 0 lf 1015,8 hPa 0,0 l/m 2 min 0 min 725 W/m 8,4 km/h (2 Bft)
07.08.2015 11:18 24,1 C 21,1 C 82 % 0 lf 1015,8 hPa 0,0 l/m 2 min 0 min 727 W/m 6,3 km/h (2 Bft)
07.08.2015 11:20 24,3 C 21,1 C 82 % 0 lf 1015,8 hPa 0,0 l/m 2 min 0 min 743 W/m 6,3 km/h (2 Bft)
07.08.2015 11:22 24,4 C 21,7 C 82 % 0 lf 1015,7 hPa 0,0 l/m 2 min 0 min 748 W/m 12,6 km/h (3 Bft)
07.08.2015 11:24 24,6 C 21,7 C 81 % 0 lf 1015,7 hPa 0,0 l/m 2 min 0 min 793 W/m 8,4 km/h (2 Bft)
07.08.2015 11:26 24,7 C 21,7 C 81 % 0 lf 1015,8 hPa 0,0 l/m 2 min 0 min 814 W/m 2,1 km/h (1 Bft)
07.08.2015 11:28 24,8 C 21,7 C 78 % 0 lf 1015,7 hPa 0,0 l/m 2 min 0 min 799 W/m 4,2 km/h (1 Bft)
07.08.2015 11:30 25,0 C 21,7 C 78 % 0 lf 1015,6 hPa 0,0 l/m 2 min 0 min 805 W/m 4,2 km/h (1 Bft)
07.08.2015 11:32 25,1 C 21,7 C 79 % 0 lf 1015,7 hPa 0,0 l/m 2 min 0 min 731 W/m 4,2 km/h (1 Bft)
07.08.2015 11:34 25,3 C 21,7 C 79 % 0 lf 1015,6 hPa 0,0 l/m 0 min 0 min 231 W/m 6,3 km/h (2 Bft)
07.08.2015 11:36 25,3 C 21,1 C 76 % 0 lf 1015,7 hPa 0,0 l/m 0 min 0 min 236 W/m 8,4 km/h (2 Bft)
07.08.2015 11:38 25,4 C 21,7 C 75 % 0 lf 1015,6 hPa 0,0 l/m 0 min 0 min 297 W/m 6,3 km/h (2 Bft)
07.08.2015 11:40 25,4 C 22,2 C 75 % 0 lf 1015,7 hPa 0,0 l/m 0 min 0 min 303 W/m 8,4 km/h (2 Bft)
07.08.2015 11:42 25,4 C 22,8 C 75 % 0 lf 1015,7 hPa 0,0 l/m 2 min 0 min 404 W/m 10,5 km/h (2 Bft)
07.08.2015 11:44 25,4 C 23,3 C 76 % 0 lf 1015,7 hPa 0,0 l/m 2 min 0 min 803 W/m 8,4 km/h (2 Bft)
07.08.2015 11:46 25,4 C 24,4 C 75 % 0 lf 1015,7 hPa 0,0 l/m 2 min 0 min 699 W/m 6,3 km/h (2 Bft)
07.08.2015 11:48 25,4 C 24,4 C 74 % 0 lf 1015,7 hPa 0,0 l/m 2 min 0 min 558 W/m 4,2 km/h (1 Bft)
07.08.2015 11:50 25,5 C 25,0 C 74 % 0 lf 1015,6 hPa 0,0 l/m 2 min 0 min 766 W/m 4,2 km/h (1 Bft)
07.08.2015 11:52 25,6 C 25,0 C 75 % 0 lf 1015,6 hPa 0,0 l/m 2 min 0 min 756 W/m 4,2 km/h (1 Bft)
07.08.2015 11:54 25,6 C 25,0 C 75 % 0 lf 1015,6 hPa 0,0 l/m 2 min 0 min 751 W/m 10,5 km/h (2 Bft)
07.08.2015 11:56 25,7 C 26,1 C 77 % 0 lf 1015,6 hPa 0,0 l/m 2 min 0 min 749 W/m 8,4 km/h (2 Bft)
07.08.2015 11:58 25,8 C 25,6 C 75 % 0 lf 1015,6 hPa 0,0 l/m 2 min 0 min 726 W/m 10,5 km/h (2 Bft)
07.08.2015 12:00 25,9 C 25,0 C 75 % 0 lf 1015,6 hPa 0,0 l/m 2 min 0 min 636 W/m 10,5 km/h (2 Bft)
07.08.2015 12:02 25,9 C 24,4 C 73 % 0 lf 1015,5 hPa 0,0 l/m 2 min 0 min 513 W/m 10,5 km/h (2 Bft)
07.08.2015 12:05 25,9 C 24,4 C 73 % 0 lf 1015,5 hPa 0,0 l/m 0 min 0 min 320 W/m 8,4 km/h (2 Bft)
07.08.2015 12:08 25,9 C 25,0 C 72 % 0 lf 1015,5 hPa 0,0 l/m 0 min 0 min 357 W/m 8,4 km/h (2 Bft)
07.08.2015 12:10 26,0 C 25,6 C 72 % 0 lf 1015,5 hPa 0,0 l/m 2 min 0 min 404 W/m 6,3 km/h (2 Bft)
07.08.2015 12:12 26,1 C 25,6 C 73 % 0 lf 1015,5 hPa 0,0 l/m 2 min 0 min 557 W/m 8,4 km/h (2 Bft)
07.08.2015 12:14 26,2 C 25,6 C 73 % 0 lf 1015,5 hPa 0,0 l/m 2 min 0 min 662 W/m 14,6 km/h (3 Bft)
07.08.2015 12:16 26,2 C 25,6 C 72 % 0 lf 1015,5 hPa 0,0 l/m 2 min 0 min 689 W/m 12,6 km/h (3 Bft)
07.08.2015 12:18 26,3 C 25,6 C 71 % 0 lf 1015,6 hPa 0,0 l/m 2 min 0 min 660 W/m 8,4 km/h (2 Bft)
07.08.2015 12:20 26,3 C 26,1 C 71 % 0 lf 1015,6 hPa 0,0 l/m 0 min 0 min 232 W/m 8,4 km/h (2 Bft)
07.08.2015 12:22 26,4 C 26,7 C 72 % 0 lf 1015,6 hPa 0,0 l/m 2 min 0 min 663 W/m 12,6 km/h (3 Bft)
07.08.2015 12:24 26,5 C 26,7 C 71 % 0 lf 1015,5 hPa 0,0 l/m 2 min 0 min 762 W/m 8,4 km/h (2 Bft)
07.08.2015 12:26 26,6 C 26,1 C 73 % 0 lf 1015,6 hPa 0,0 l/m 2 min 0 min 763 W/m 8,4 km/h (2 Bft)
07.08.2015 12:28 26,7 C 26,1 C 70 % 0 lf 1015,6 hPa 0,0 l/m 2 min 0 min 765 W/m 10,5 km/h (2 Bft)
07.08.2015 12:30 26,7 C 25,6 C 70 % 0 lf 1015,6 hPa 0,0 l/m 2 min 0 min 767 W/m 10,5 km/h (2 Bft)
07.08.2015 12:32 26,8 C 25,6 C 69 % 0 lf 1015,6 hPa 0,0 l/m 2 min 0 min 773 W/m 10,5 km/h (2 Bft)
07.08.2015 12:34 26,8 C 25,6 C 69 % 0 lf 1015,5 hPa 0,0 l/m 2 min 0 min 779 W/m 8,4 km/h (2 Bft)
07.08.2015 12:36 26,9 C 25,6 C 68 % 0 lf 1015,6 hPa 0,0 l/m 2 min 0 min 781 W/m 6,3 km/h (2 Bft)
07.08.2015 12:38 26,9 C 25,6 C 69 % 0 lf 1015,6 hPa 0,0 l/m 2 min 0 min 775 W/m 10,5 km/h (2 Bft)
07.08.2015 12:40 27,0 C 25,6 C 69 % 0 lf 1015,6 hPa 0,0 l/m 2 min 0 min 775 W/m 10,5 km/h (2 Bft)
07.08.2015 12:42 27,1 C 25,6 C 70 % 0 lf 1015,6 hPa 0,0 l/m 2 min 0 min 771 W/m 14,6 km/h (3 Bft)
07.08.2015 12:44 27,2 C 25,6 C 70 % 0 lf 1015,6 hPa 0,0 l/m 2 min 0 min 771 W/m 12,6 km/h (3 Bft)
07.08.2015 12:46 27,2 C 25,6 C 67 % 0 lf 1015,6 hPa 0,0 l/m 2 min 0 min 775 W/m 14,6 km/h (3 Bft)
07.08.2015 12:48 27,2 C 26,1 C 68 % 0 lf 1015,6 hPa 0,0 l/m 2 min 0 min 781 W/m 10,5 km/h (2 Bft)
07.08.2015 12:50 27,3 C 26,1 C 68 % 0 lf 1015,6 hPa 0,0 l/m 2 min 0 min 786 W/m 14,6 km/h (3 Bft)
07.08.2015 12:52 27,3 C 26,1 C 67 % 0 lf 1015,6 hPa 0,0 l/m 2 min 0 min 773 W/m 6,3 km/h (2 Bft)
07.08.2015 12:54 27,4 C 25,6 C 67 % 0 lf 1015,6 hPa 0,0 l/m 2 min 0 min 783 W/m 12,6 km/h (3 Bft)
07.08.2015 12:56 27,5 C 26,1 C 68 % 0 lf 1015,6 hPa 0,0 l/m 2 min 0 min 782 W/m 16,7 km/h (3 Bft)
07.08.2015 12:58 27,6 C 26,1 C 67 % 0 lf 1015,6 hPa 0,0 l/m 2 min 0 min 792 W/m 14,6 km/h (3 Bft)
07.08.2015 13:00 27,6 C 26,1 C 67 % 0 lf 1015,6 hPa 0,0 l/m 2 min 0 min 793 W/m 10,5 km/h (2 Bft)
07.08.2015 13:02 27,7 C 26,1 C 68 % 0 lf 1015,6 hPa 0,0 l/m 2 min 0 min 789 W/m 10,5 km/h (2 Bft)
07.08.2015 13:04 27,8 C 26,1 C 66 % 0 lf 1015,6 hPa 0,0 l/m 2 min 0 min 792 W/m 16,7 km/h (3 Bft)
07.08.2015 13:06 27,8 C 26,1 C 65 % 0 lf 1015,6 hPa 0,0 l/m 2 min 0 min 792 W/m 18,8 km/h (3 Bft)
07.08.2015 13:08 27,8 C 26,1 C 64 % 0 lf 1015,5 hPa 0,0 l/m 2 min 0 min 797 W/m 12,6 km/h (3 Bft)
07.08.2015 13:10 27,9 C 26,1 C 65 % 0 lf 1015,6 hPa 0,0 l/m 2 min 0 min 802 W/m 12,6 km/h (3 Bft)
07.08.2015 13:12 27,9 C 26,1 C 63 % 0 lf 1015,6 hPa 0,0 l/m 2 min 0 min 799 W/m 16,7 km/h (3 Bft)
07.08.2015 13:14 27,9 C 26,1 C 64 % 0 lf 1015,5 hPa 0,0 l/m 2 min 0 min 790 W/m 18,8 km/h (3 Bft)
07.08.2015 13:16 27,9 C 26,7 C 65 % 0 lf 1015,5 hPa 0,0 l/m 2 min 0 min 794 W/m 16,7 km/h (3 Bft)
07.08.2015 13:18 28,0 C 26,7 C 64 % 0 lf 1015,5 hPa 0,0 l/m 2 min 0 min 795 W/m 16,7 km/h (3 Bft)
07.08.2015 13:20 27,9 C 26,7 C 63 % 0 lf 1015,5 hPa 0,0 l/m 2 min 0 min 798 W/m 16,7 km/h (3 Bft)
07.08.2015 13:22 27,9 C 26,1 C 63 % 0 lf 1015,5 hPa 0,0 l/m 2 min 0 min 804 W/m 14,6 km/h (3 Bft)
07.08.2015 13:24 27,9 C 26,1 C 63 % 0 lf 1015,5 hPa 0,0 l/m 2 min 0 min 798 W/m 16,7 km/h (3 Bft)
07.08.2015 13:26 27,9 C 26,1 C 64 % 0 lf 1015,6 hPa 0,0 l/m 2 min 0 min 787 W/m 14,6 km/h (3 Bft)
07.08.2015 13:28 28,0 C 26,7 C 65 % 0 lf 1015,5 hPa 0,0 l/m 2 min 0 min 793 W/m 12,6 km/h (3 Bft)
07.08.2015 13:30 28,1 C 26,7 C 66 % 0 lf 1015,6 hPa 0,0 l/m 2 min 0 min 793 W/m 20,9 km/h (4 Bft)
07.08.2015 13:32 28,2 C 26,7 C 65 % 0 lf 1015,6 hPa 0,0 l/m 2 min 0 min 789 W/m 20,9 km/h (4 Bft)
07.08.2015 13:34 28,2 C 26,1 C 64 % 0 lf 1015,6 hPa 0,0 l/m 2 min 0 min 778 W/m 14,6 km/h (3 Bft)
07.08.2015 13:36 28,2 C 26,7 C 65 % 0 lf 1015,6 hPa 0,0 l/m 2 min 0 min 786 W/m 16,7 km/h (3 Bft)
07.08.2015 13:38 28,2 C 26,7 C 66 % 0 lf 1015,5 hPa 0,0 l/m 2 min 0 min 794 W/m 16,7 km/h (3 Bft)
07.08.2015 13:40 28,3 C 26,7 C 65 % 0 lf 1015,5 hPa 0,0 l/m 2 min 0 min 794 W/m 16,7 km/h (3 Bft)
07.08.2015 13:42 28,3 C 26,7 C 64 % 0 lf 1015,5 hPa 0,0 l/m 2 min 0 min 803 W/m 18,8 km/h (3 Bft)
07.08.2015 13:44 28,3 C 26,7 C 64 % 0 lf 1015,6 hPa 0,0 l/m 2 min 0 min 807 W/m 20,9 km/h (4 Bft)
07.08.2015 13:46 28,3 C 26,7 C 63 % 0 lf 1015,5 hPa 0,0 l/m 2 min 0 min 802 W/m 18,8 km/h (3 Bft)
07.08.2015 13:48 28,3 C 26,7 C 62 % 0 lf 1015,6 hPa 0,0 l/m 2 min 0 min 804 W/m 18,8 km/h (3 Bft)
07.08.2015 13:50 28,3 C 26,7 C 62 % 0 lf 1015,5 hPa 0,0 l/m 2 min 0 min 805 W/m 12,6 km/h (3 Bft)
07.08.2015 13:52 28,3 C 26,7 C 64 % 0 lf 1015,5 hPa 0,0 l/m 2 min 0 min 794 W/m 20,9 km/h (4 Bft)
07.08.2015 13:54 28,3 C 26,7 C 64 % 0 lf 1015,5 hPa 0,0 l/m 2 min 0 min 795 W/m 23,0 km/h (4 Bft)
07.08.2015 13:56 28,3 C 26,7 C 64 % 0 lf 1015,6 hPa 0,0 l/m 2 min 0 min 798 W/m 16,7 km/h (3 Bft)
07.08.2015 13:58 28,3 C 26,7 C 65 % 0 lf 1015,5 hPa 0,0 l/m 2 min 0 min 803 W/m 16,7 km/h (3 Bft)
07.08.2015 14:00 28,3 C 26,7 C 65 % 0 lf 1015,5 hPa 0,0 l/m 2 min 0 min 804 W/m 20,9 km/h (4 Bft)
07.08.2015 14:02 28,3 C 26,7 C 66 % 0 lf 1015,5 hPa 0,0 l/m 2 min 0 min 803 W/m 27,2 km/h (4 Bft)
07.08.2015 14:04 28,3 C 26,7 C 66 % 0 lf 1015,5 hPa 0,0 l/m 2 min 0 min 802 W/m 12,6 km/h (3 Bft)
07.08.2015 14:06 28,4 C 26,7 C 66 % 0 lf 1015,5 hPa 0,0 l/m 2 min 0 min 800 W/m 16,7 km/h (3 Bft)
07.08.2015 14:08 28,4 C 26,7 C 66 % 0 lf 1015,5 hPa 0,0 l/m 2 min 0 min 789 W/m 20,9 km/h (4 Bft)
07.08.2015 14:10 28,4 C 26,7 C 65 % 0 lf 1015,5 hPa 0,0 l/m 2 min 0 min 797 W/m 18,8 km/h (3 Bft)
07.08.2015 14:12 28,4 C 26,7 C 64 % 0 lf 1015,5 hPa 0,0 l/m 2 min 0 min 788 W/m 16,7 km/h (3 Bft)
07.08.2015 14:14 28,4 C 26,7 C 65 % 0 lf 1015,5 hPa 0,0 l/m 2 min 0 min 789 W/m 23,0 km/h (4 Bft)
07.08.2015 14:16 28,4 C 26,7 C 65 % 0 lf 1015,5 hPa 0,0 l/m 2 min 0 min 793 W/m 18,8 km/h (3 Bft)
07.08.2015 14:18 28,4 C 26,7 C 66 % 0 lf 1015,5 hPa 0,0 l/m 2 min 0 min 790 W/m 18,8 km/h (3 Bft)
07.08.2015 14:20 28,4 C 26,7 C 66 % 0 lf 1015,5 hPa 0,0 l/m 2 min 0 min 772 W/m 18,8 km/h (3 Bft)
07.08.2015 14:22 28,4 C 26,7 C 66 % 0 lf 1015,5 hPa 0,0 l/m 2 min 0 min 787 W/m 23,0 km/h (4 Bft)
07.08.2015 14:24 28,4 C 26,7 C 67 % 0 lf 1015,5 hPa 0,0 l/m 2 min 0 min 781 W/m 18,8 km/h (3 Bft)
07.08.2015 14:26 28,4 C 26,7 C 66 % 0 lf 1015,5 hPa 0,0 l/m 2 min 0 min 773 W/m 25,1 km/h (4 Bft)
07.08.2015 14:28 28,4 C 26,7 C 66 % 0 lf 1015,5 hPa 0,0 l/m 2 min 0 min 775 W/m 23,0 km/h (4 Bft)
07.08.2015 14:30 28,4 C 26,7 C 65 % 0 lf 1015,5 hPa 0,0 l/m 2 min 0 min 782 W/m 16,7 km/h (3 Bft)
07.08.2015 14:32 28,3 C 26,7 C 65 % 0 lf 1015,5 hPa 0,0 l/m 2 min 0 min 782 W/m 18,8 km/h (3 Bft)
07.08.2015 14:34 28,3 C 26,1 C 64 % 0 lf 1015,5 hPa 0,0 l/m 2 min 0 min 778 W/m 23,0 km/h (4 Bft)
07.08.2015 14:36 28,3 C 26,7 C 64 % 0 lf 1015,5 hPa 0,0 l/m 2 min 0 min 774 W/m 20,9 km/h (4 Bft)
07.08.2015 14:38 28,3 C 26,7 C 65 % 0 lf 1015,5 hPa 0,0 l/m 2 min 0 min 776 W/m 23,0 km/h (4 Bft)
07.08.2015 14:40 28,3 C 26,7 C 66 % 0 lf 1015,6 hPa 0,0 l/m 2 min 0 min 775 W/m 12,6 km/h (3 Bft)
07.08.2015 14:42 28,3 C 26,7 C 66 % 0 lf 1015,5 hPa 0,0 l/m 2 min 0 min 774 W/m 18,8 km/h (3 Bft)
07.08.2015 14:44 28,4 C 26,7 C 66 % 0 lf 1015,5 hPa 0,0 l/m 2 min 0 min 771 W/m 14,6 km/h (3 Bft)
07.08.2015 14:46 28,4 C 27,2 C 66 % 0 lf 1015,5 hPa 0,0 l/m 2 min 0 min 762 W/m 12,6 km/h (3 Bft)
07.08.2015 14:48 28,4 C 27,2 C 66 % 0 lf 1015,4 hPa 0,0 l/m 2 min 0 min 768 W/m 12,6 km/h (3 Bft)
07.08.2015 14:50 28,5 C 27,2 C 66 % 0 lf 1015,4 hPa 0,0 l/m 2 min 0 min 772 W/m 14,6 km/h (3 Bft)
07.08.2015 14:52 28,5 C 26,7 C 65 % 0 lf 1015,5 hPa 0,0 l/m 2 min 0 min 751 W/m 23,0 km/h (4 Bft)
07.08.2015 14:54 28,5 C 26,7 C 66 % 0 lf 1015,5 hPa 0,0 l/m 2 min 0 min 744 W/m 18,8 km/h (3 Bft)
07.08.2015 14:56 28,5 C 26,7 C 66 % 0 lf 1015,5 hPa 0,0 l/m 2 min 0 min 769 W/m 16,7 km/h (3 Bft)
07.08.2015 14:58 28,6 C 26,7 C 65 % 0 lf 1015,5 hPa 0,0 l/m 2 min 0 min 767 W/m 18,8 km/h (3 Bft)
07.08.2015 15:00 28,6 C 27,2 C 66 % 0 lf 1015,4 hPa 0,0 l/m 2 min 0 min 769 W/m 14,6 km/h (3 Bft)
07.08.2015 15:02 28,7 C 27,2 C 66 % 0 lf 1015,5 hPa 0,0 l/m 2 min 0 min 767 W/m 16,7 km/h (3 Bft)
07.08.2015 15:04 28,8 C 27,8 C 66 % 0 lf 1015,4 hPa 0,0 l/m 2 min 0 min 765 W/m 20,9 km/h (4 Bft)
07.08.2015 15:06 28,9 C 27,2 C 65 % 0 lf 1015,4 hPa 0,0 l/m 2 min 0 min 752 W/m 23,0 km/h (4 Bft)
07.08.2015 15:08 28,9 C 27,2 C 65 % 0 lf 1015,5 hPa 0,0 l/m 2 min 0 min 754 W/m 20,9 km/h (4 Bft)
07.08.2015 15:10 28,9 C 27,2 C 64 % 0 lf 1015,4 hPa 0,0 l/m 2 min 0 min 750 W/m 16,7 km/h (3 Bft)
07.08.2015 15:12 28,9 C 27,2 C 65 % 0 lf 1015,4 hPa 0,0 l/m 2 min 0 min 756 W/m 18,8 km/h (3 Bft)
07.08.2015 15:14 28,9 C 27,2 C 65 % 0 lf 1015,4 hPa 0,0 l/m 2 min 0 min 743 W/m 20,9 km/h (4 Bft)
07.08.2015 15:16 28,9 C 27,2 C 65 % 0 lf 1015,4 hPa 0,0 l/m 2 min 0 min 744 W/m 16,7 km/h (3 Bft)
07.08.2015 15:18 28,9 C 27,2 C 65 % 0 lf 1015,3 hPa 0,0 l/m 2 min 0 min 744 W/m 16,7 km/h (3 Bft)
07.08.2015 15:20 28,9 C 26,7 C 64 % 0 lf 1015,3 hPa 0,0 l/m 2 min 0 min 736 W/m 20,9 km/h (4 Bft)
07.08.2015 15:22 28,9 C 27,2 C 64 % 0 lf 1015,3 hPa 0,0 l/m 2 min 0 min 727 W/m 16,7 km/h (3 Bft)
07.08.2015 15:24 28,9 C 27,8 C 67 % 0 lf 1015,3 hPa 0,0 l/m 2 min 0 min 732 W/m 18,8 km/h (3 Bft)
07.08.2015 15:26 29,0 C 27,8 C 67 % 0 lf 1015,3 hPa 0,0 l/m 2 min 0 min 728 W/m 12,6 km/h (3 Bft)
07.08.2015 15:28 29,1 C 27,8 C 66 % 0 lf 1015,4 hPa 0,0 l/m 2 min 0 min 724 W/m 10,5 km/h (2 Bft)
07.08.2015 15:30 29,1 C 27,8 C 65 % 0 lf 1015,4 hPa 0,0 l/m 2 min 0 min 719 W/m 16,7 km/h (3 Bft)
07.08.2015 15:32 29,1 C 27,8 C 65 % 0 lf 1015,4 hPa 0,0 l/m 2 min 0 min 718 W/m 14,6 km/h (3 Bft)
07.08.2015 15:34 29,1 C 27,2 C 64 % 0 lf 1015,4 hPa 0,0 l/m 2 min 0 min 719 W/m 14,6 km/h (3 Bft)
07.08.2015 15:36 29,1 C 27,2 C 65 % 0 lf 1015,5 hPa 0,0 l/m 2 min 0 min 714 W/m 18,8 km/h (3 Bft)
07.08.2015 15:38 29,1 C 27,2 C 65 % 0 lf 1015,4 hPa 0,0 l/m 2 min 0 min 705 W/m 18,8 km/h (3 Bft)
07.08.2015 15:40 29,1 C 27,8 C 65 % 0 lf 1015,4 hPa 0,0 l/m 2 min 0 min 701 W/m 20,9 km/h (4 Bft)
07.08.2015 15:42 29,1 C 28,9 C 64 % 0 lf 1015,4 hPa 0,0 l/m 2 min 0 min 702 W/m 20,9 km/h (4 Bft)
07.08.2015 15:44 29,1 C 30,0 C 65 % 0 lf 1015,4 hPa 0,0 l/m 2 min 0 min 698 W/m 10,5 km/h (2 Bft)
07.08.2015 15:46 29,1 C 30,6 C 65 % 0 lf 1015,3 hPa 0,0 l/m 2 min 0 min 689 W/m 23,0 km/h (4 Bft)
07.08.2015 15:48 29,1 C 29,4 C 65 % 0 lf 1015,1 hPa 0,0 l/m 2 min 0 min 690 W/m 14,6 km/h (3 Bft)
07.08.2015 15:50 29,1 C 27,8 C 64 % 0 lf 1015,1 hPa 0,0 l/m 2 min 0 min 687 W/m 18,8 km/h (3 Bft)
07.08.2015 15:52 29,1 C 27,8 C 65 % 0 lf 1015,1 hPa 0,0 l/m 2 min 0 min 683 W/m 14,6 km/h (3 Bft)
07.08.2015 15:54 29,1 C 27,8 C 65 % 0 lf 1015,1 hPa 0,0 l/m 2 min 0 min 678 W/m 16,7 km/h (3 Bft)
07.08.2015 15:56 29,2 C 27,8 C 64 % 0 lf 1015,1 hPa 0,0 l/m 2 min 0 min 675 W/m 20,9 km/h (4 Bft)
07.08.2015 15:58 29,2 C 27,8 C 63 % 0 lf 1015,1 hPa 0,0 l/m 2 min 0 min 677 W/m 12,6 km/h (3 Bft)
07.08.2015 16:00 29,2 C 27,2 C 63 % 0 lf 1015,1 hPa 0,0 l/m 2 min 0 min 677 W/m 12,6 km/h (3 Bft)
07.08.2015 16:02 29,2 C 27,8 C 65 % 0 lf 1015,2 hPa 0,0 l/m 2 min 0 min 668 W/m 14,6 km/h (3 Bft)
07.08.2015 16:04 29,2 C 27,8 C 65 % 0 lf 1015,2 hPa 0,0 l/m 2 min 0 min 662 W/m 14,6 km/h (3 Bft)
07.08.2015 16:06 29,2 C 27,8 C 65 % 0 lf 1015,3 hPa 0,0 l/m 2 min 0 min 662 W/m 18,8 km/h (3 Bft)
07.08.2015 16:08 29,3 C 27,8 C 66 % 0 lf 1015,2 hPa 0,0 l/m 2 min 0 min 658 W/m 16,7 km/h (3 Bft)
07.08.2015 16:10 29,3 C 27,8 C 65 % 0 lf 1015,2 hPa 0,0 l/m 2 min 0 min 656 W/m 18,8 km/h (3 Bft)
07.08.2015 16:12 29,4 C 28,3 C 66 % 0 lf 1015,3 hPa 0,0 l/m 2 min 0 min 651 W/m 18,8 km/h (3 Bft)
07.08.2015 16:14 29,4 C 30,0 C 65 % 0 lf 1015,3 hPa 0,0 l/m 2 min 0 min 634 W/m 16,7 km/h (3 Bft)
07.08.2015 16:16 29,4 C 30,6 C 64 % 0 lf 1015,4 hPa 0,0 l/m 2 min 0 min 623 W/m 20,9 km/h (4 Bft)
07.08.2015 16:18 29,5 C 31,1 C 64 % 0 lf 1015,3 hPa 0,0 l/m 2 min 0 min 620 W/m 16,7 km/h (3 Bft)
07.08.2015 16:20 29,5 C 31,7 C 64 % 0 lf 1015,4 hPa 0,0 l/m 2 min 0 min 620 W/m 18,8 km/h (3 Bft)
07.08.2015 16:22 29,6 C 31,1 C 65 % 0 lf 1015,5 hPa 0,0 l/m 2 min 0 min 615 W/m 18,8 km/h (3 Bft)
07.08.2015 16:24 29,6 C 30,6 C 65 % 0 lf 1015,5 hPa 0,0 l/m 2 min 0 min 615 W/m 16,7 km/h (3 Bft)
07.08.2015 16:26 29,7 C 30,0 C 65 % 0 lf 1015,5 hPa 0,0 l/m 2 min 0 min 605 W/m 16,7 km/h (3 Bft)
07.08.2015 16:28 29,7 C 30,0 C 65 % 0 lf 1015,6 hPa 0,0 l/m 2 min 0 min 602 W/m 18,8 km/h (3 Bft)
07.08.2015 16:30 29,7 C 28,9 C 64 % 0 lf 1015,6 hPa 0,0 l/m 2 min 0 min 594 W/m 20,9 km/h (4 Bft)
07.08.2015 16:32 29,7 C 28,9 C 65 % 0 lf 1015,6 hPa 0,0 l/m 2 min 0 min 586 W/m 16,7 km/h (3 Bft)
07.08.2015 16:34 29,7 C 29,4 C 66 % 0 lf 1015,6 hPa 0,0 l/m 2 min 0 min 579 W/m 16,7 km/h (3 Bft)
07.08.2015 16:36 29,8 C 29,4 C 66 % 0 lf 1015,6 hPa 0,0 l/m 2 min 0 min 569 W/m 16,7 km/h (3 Bft)
07.08.2015 16:38 29,8 C 28,9 C 65 % 0 lf 1015,5 hPa 0,0 l/m 2 min 0 min 572 W/m 20,9 km/h (4 Bft)
07.08.2015 16:40 29,8 C 28,3 C 64 % 0 lf 1015,4 hPa 0,0 l/m 2 min 0 min 573 W/m 16,7 km/h (3 Bft)
07.08.2015 16:42 29,8 C 28,3 C 64 % 0 lf 1015,5 hPa 0,0 l/m 2 min 0 min 567 W/m 12,6 km/h (3 Bft)
07.08.2015 16:44 29,8 C 28,3 C 65 % 0 lf 1015,4 hPa 0,0 l/m 2 min 0 min 568 W/m 23,0 km/h (4 Bft)
07.08.2015 16:46 29,9 C 28,3 C 65 % 0 lf 1015,4 hPa 0,0 l/m 2 min 0 min 569 W/m 14,6 km/h (3 Bft)
07.08.2015 16:48 29,9 C 27,8 C 64 % 0 lf 1015,4 hPa 0,0 l/m 2 min 0 min 574 W/m 18,8 km/h (3 Bft)
07.08.2015 16:50 29,9 C 27,8 C 65 % 0 lf 1015,5 hPa 0,0 l/m 2 min 0 min 582 W/m 14,6 km/h (3 Bft)
07.08.2015 16:52 29,9 C 27,8 C 63 % 0 lf 1015,5 hPa 0,0 l/m 2 min 0 min 590 W/m 14,6 km/h (3 Bft)
07.08.2015 16:54 29,9 C 27,8 C 63 % 0 lf 1015,4 hPa 0,0 l/m 2 min 0 min 563 W/m 16,7 km/h (3 Bft)
07.08.2015 16:56 29,8 C 27,8 C 64 % 0 lf 1015,3 hPa 0,0 l/m 2 min 0 min 568 W/m 12,6 km/h (3 Bft)
07.08.2015 16:58 29,8 C 27,8 C 64 % 0 lf 1015,4 hPa 0,0 l/m 2 min 0 min 570 W/m 18,8 km/h (3 Bft)
07.08.2015 17:00 29,8 C 27,8 C 63 % 0 lf 1015,3 hPa 0,0 l/m 2 min 0 min 579 W/m 16,7 km/h (3 Bft)
07.08.2015 17:02 29,8 C 27,8 C 63 % 0 lf 1015,2 hPa 0,0 l/m 2 min 0 min 583 W/m 16,7 km/h (3 Bft)
07.08.2015 17:04 29,8 C 27,2 C 64 % 0 lf 1015,3 hPa 0,0 l/m 2 min 0 min 577 W/m 16,7 km/h (3 Bft)
07.08.2015 17:06 29,7 C 27,2 C 63 % 0 lf 1015,3 hPa 0,0 l/m 2 min 0 min 507 W/m 18,8 km/h (3 Bft)
07.08.2015 17:08 29,7 C 27,2 C 64 % 0 lf 1015,2 hPa 0,0 l/m 2 min 0 min 307 W/m 12,6 km/h (3 Bft)
07.08.2015 17:10 29,6 C 27,2 C 64 % 0 lf 1015,2 hPa 0,0 l/m 2 min 0 min 295 W/m 18,8 km/h (3 Bft)
07.08.2015 17:12 29,6 C 27,2 C 64 % 0 lf 1015,2 hPa 0,0 l/m 0 min 0 min 269 W/m 12,6 km/h (3 Bft)
07.08.2015 17:14 29,6 C 27,2 C 64 % 0 lf 1015,2 hPa 0,0 l/m 0 min 0 min 196 W/m 14,6 km/h (3 Bft)
07.08.2015 17:16 29,4 C 26,7 C 64 % 0 lf 1015,2 hPa 0,0 l/m 0 min 0 min 183 W/m 16,7 km/h (3 Bft)
07.08.2015 17:18 29,4 C 26,7 C 64 % 0 lf 1015,3 hPa 0,0 l/m 0 min 0 min 175 W/m 10,5 km/h (2 Bft)
07.08.2015 17:20 29,3 C 26,7 C 65 % 0 lf 1015,3 hPa 0,0 l/m 0 min 0 min 184 W/m 18,8 km/h (3 Bft)
07.08.2015 17:22 29,3 C 26,7 C 64 % 0 lf 1015,4 hPa 0,0 l/m 0 min 0 min 219 W/m 12,6 km/h (3 Bft)
07.08.2015 17:24 29,2 C 26,7 C 65 % 0 lf 1015,3 hPa 0,0 l/m 2 min 0 min 302 W/m 16,7 km/h (3 Bft)
07.08.2015 17:26 29,1 C 27,2 C 65 % 0 lf 1015,4 hPa 0,0 l/m 2 min 0 min 485 W/m 14,6 km/h (3 Bft)
07.08.2015 17:28 29,1 C 27,2 C 66 % 0 lf 1015,5 hPa 0,0 l/m 2 min 0 min 348 W/m 16,7 km/h (3 Bft)
07.08.2015 17:30 29,1 C 27,2 C 66 % 0 lf 1015,5 hPa 0,0 l/m 2 min 0 min 506 W/m 18,8 km/h (3 Bft)
07.08.2015 17:32 29,0 C 27,2 C 66 % 0 lf 1015,4 hPa 0,0 l/m 2 min 0 min 445 W/m 23,0 km/h (4 Bft)
07.08.2015 17:34 29,0 C 26,7 C 66 % 0 lf 1015,5 hPa 0,0 l/m 0 min 0 min 193 W/m 18,8 km/h (3 Bft)
07.08.2015 17:36 28,9 C 26,7 C 66 % 0 lf 1015,5 hPa 0,0 l/m 0 min 0 min 192 W/m 20,9 km/h (4 Bft)
07.08.2015 17:38 28,9 C 26,7 C 66 % 0 lf 1015,4 hPa 0,0 l/m 0 min 0 min 182 W/m 18,8 km/h (3 Bft)
07.08.2015 17:40 28,8 C 26,7 C 67 % 0 lf 1015,4 hPa 0,0 l/m 0 min 0 min 180 W/m 16,7 km/h (3 Bft)
07.08.2015 17:42 28,8 C 26,7 C 67 % 0 lf 1015,4 hPa 0,0 l/m 0 min 0 min 168 W/m 16,7 km/h (3 Bft)
07.08.2015 17:44 28,7 C 26,7 C 66 % 0 lf 1015,3 hPa 0,0 l/m 0 min 0 min 162 W/m 14,6 km/h (3 Bft)
07.08.2015 17:46 28,7 C 26,7 C 67 % 0 lf 1015,4 hPa 0,0 l/m 0 min 0 min 163 W/m 18,8 km/h (3 Bft)
07.08.2015 17:48 28,7 C 26,7 C 67 % 0 lf 1015,4 hPa 0,0 l/m 0 min 0 min 167 W/m 12,6 km/h (3 Bft)
07.08.2015 17:50 28,6 C 26,7 C 67 % 0 lf 1015,4 hPa 0,0 l/m 0 min 0 min 168 W/m 14,6 km/h (3 Bft)
07.08.2015 17:52 28,6 C 26,7 C 67 % 0 lf 1015,4 hPa 0,0 l/m 0 min 0 min 164 W/m 12,6 km/h (3 Bft)
07.08.2015 17:54 28,5 C 26,1 C 67 % 0 lf 1015,4 hPa 0,0 l/m 0 min 0 min 181 W/m 16,7 km/h (3 Bft)
07.08.2015 17:56 28,4 C 26,1 C 67 % 0 lf 1015,4 hPa 0,0 l/m 0 min 0 min 183 W/m 16,7 km/h (3 Bft)
07.08.2015 17:58 28,4 C 26,1 C 68 % 0 lf 1015,4 hPa 0,0 l/m 0 min 0 min 198 W/m 16,7 km/h (3 Bft)
07.08.2015 18:00 28,4 C 26,1 C 68 % 0 lf 1015,4 hPa 0,0 l/m 0 min 0 min 221 W/m 14,6 km/h (3 Bft)
07.08.2015 18:02 28,3 C 26,7 C 69 % 0 lf 1015,5 hPa 0,0 l/m 2 min 0 min 282 W/m 12,6 km/h (3 Bft)
07.08.2015 18:05 28,3 C 26,7 C 69 % 0 lf 1015,3 hPa 0,0 l/m 2 min 0 min 501 W/m 12,6 km/h (3 Bft)
07.08.2015 18:08 28,3 C 27,2 C 69 % 0 lf 1015,4 hPa 0,0 l/m 2 min 0 min 427 W/m 16,7 km/h (3 Bft)
07.08.2015 18:10 28,3 C 26,7 C 69 % 0 lf 1015,4 hPa 0,0 l/m 2 min 0 min 468 W/m 14,6 km/h (3 Bft)
07.08.2015 18:12 28,3 C 26,7 C 69 % 0 lf 1015,4 hPa 0,0 l/m 2 min 0 min 442 W/m 14,6 km/h (3 Bft)
07.08.2015 18:14 28,3 C 26,7 C 69 % 0 lf 1015,4 hPa 0,0 l/m 2 min 0 min 432 W/m 12,6 km/h (3 Bft)
07.08.2015 18:16 28,3 C 26,7 C 68 % 0 lf 1015,4 hPa 0,0 l/m 2 min 0 min 292 W/m 23,0 km/h (4 Bft)
07.08.2015 18:18 28,3 C 26,1 C 68 % 0 lf 1015,4 hPa 0,0 l/m 2 min 0 min 211 W/m 23,0 km/h (4 Bft)
07.08.2015 18:20 28,2 C 26,1 C 68 % 0 lf 1015,4 hPa 0,0 l/m 0 min 0 min 165 W/m 18,8 km/h (3 Bft)
07.08.2015 18:22 28,2 C 26,1 C 68 % 0 lf 1015,3 hPa 0,0 l/m 0 min 0 min 182 W/m 20,9 km/h (4 Bft)
07.08.2015 18:24 28,2 C 26,1 C 68 % 0 lf 1015,2 hPa 0,0 l/m 2 min 0 min 357 W/m 16,7 km/h (3 Bft)
07.08.2015 18:26 28,2 C 26,1 C 69 % 0 lf 1015,2 hPa 0,0 l/m 2 min 0 min 353 W/m 20,9 km/h (4 Bft)
07.08.2015 18:28 28,1 C 26,1 C 68 % 0 lf 1015,1 hPa 0,0 l/m 2 min 0 min 319 W/m 16,7 km/h (3 Bft)
07.08.2015 18:30 28,1 C 26,1 C 69 % 0 lf 1015,2 hPa 0,0 l/m 2 min 0 min 242 W/m 20,9 km/h (4 Bft)
07.08.2015 18:32 28,1 C 26,1 C 69 % 0 lf 1015,3 hPa 0,0 l/m 2 min 0 min 317 W/m 16,7 km/h (3 Bft)
07.08.2015 18:34 28,1 C 26,1 C 69 % 0 lf 1015,2 hPa 0,0 l/m 2 min 0 min 315 W/m 16,7 km/h (3 Bft)
07.08.2015 18:36 28,0 C 26,1 C 69 % 0 lf 1015,1 hPa 0,0 l/m 2 min 0 min 307 W/m 10,5 km/h (2 Bft)
07.08.2015 18:38 28,0 C 26,1 C 69 % 0 lf 1015,1 hPa 0,0 l/m 2 min 0 min 301 W/m 12,6 km/h (3 Bft)
07.08.2015 18:40 28,0 C 26,1 C 69 % 0 lf 1015,1 hPa 0,0 l/m 2 min 0 min 294 W/m 12,6 km/h (3 Bft)
07.08.2015 18:42 27,9 C 26,1 C 70 % 0 lf 1015,0 hPa 0,0 l/m 2 min 0 min 286 W/m 14,6 km/h (3 Bft)
07.08.2015 18:44 27,9 C 26,1 C 70 % 0 lf 1015,0 hPa 0,0 l/m 2 min 0 min 280 W/m 12,6 km/h (3 Bft)
07.08.2015 18:46 27,9 C 26,1 C 70 % 0 lf 1015,1 hPa 0,0 l/m 2 min 0 min 274 W/m 16,7 km/h (3 Bft)
07.08.2015 18:48 27,9 C 25,6 C 70 % 0 lf 1015,1 hPa 0,0 l/m 2 min 0 min 274 W/m 12,6 km/h (3 Bft)
07.08.2015 18:50 27,9 C 26,1 C 70 % 0 lf 1015,0 hPa 0,0 l/m 2 min 0 min 272 W/m 18,8 km/h (3 Bft)
07.08.2015 18:52 27,9 C 26,1 C 70 % 0 lf 1015,0 hPa 0,0 l/m 2 min 0 min 275 W/m 18,8 km/h (3 Bft)
07.08.2015 18:54 27,9 C 26,1 C 70 % 0 lf 1015,0 hPa 0,0 l/m 2 min 0 min 279 W/m 16,7 km/h (3 Bft)
07.08.2015 18:56 27,9 C 26,1 C 70 % 0 lf 1015,0 hPa 0,0 l/m 2 min 0 min 283 W/m 18,8 km/h (3 Bft)
07.08.2015 18:58 27,8 C 26,1 C 70 % 0 lf 1015,0 hPa 0,0 l/m 2 min 0 min 275 W/m 25,1 km/h (4 Bft)
07.08.2015 19:00 27,8 C 26,1 C 69 % 0 lf 1015,0 hPa 0,0 l/m 2 min 0 min 265 W/m 16,7 km/h (3 Bft)
07.08.2015 19:02 27,8 C 26,1 C 69 % 0 lf 1015,1 hPa 0,0 l/m 2 min 0 min 254 W/m 16,7 km/h (3 Bft)
07.08.2015 19:04 27,8 C 26,1 C 70 % 0 lf 1015,1 hPa 0,0 l/m 2 min 0 min 241 W/m 14,6 km/h (3 Bft)
07.08.2015 19:06 27,8 C 26,1 C 70 % 0 lf 1015,1 hPa 0,0 l/m 2 min 0 min 169 W/m 14,6 km/h (3 Bft)
07.08.2015 19:08 27,8 C 26,1 C 70 % 0 lf 1015,1 hPa 0,0 l/m 2 min 0 min 220 W/m 18,8 km/h (3 Bft)
07.08.2015 19:10 27,8 C 26,1 C 70 % 0 lf 1015,1 hPa 0,0 l/m 2 min 0 min 221 W/m 16,7 km/h (3 Bft)
07.08.2015 19:12 27,8 C 26,1 C 69 % 0 lf 1015,1 hPa 0,0 l/m 2 min 0 min 227 W/m 14,6 km/h (3 Bft)
07.08.2015 19:14 27,8 C 26,1 C 69 % 0 lf 1015,1 hPa 0,0 l/m 2 min 0 min 152 W/m 20,9 km/h (4 Bft)
07.08.2015 19:16 27,8 C 26,1 C 69 % 0 lf 1015,1 hPa 0,0 l/m 0 min 0 min 114 W/m 16,7 km/h (3 Bft)
07.08.2015 19:18 27,8 C 26,1 C 69 % 0 lf 1015,1 hPa 0,0 l/m 2 min 0 min 137 W/m 16,7 km/h (3 Bft)
07.08.2015 19:20 27,7 C 26,1 C 69 % 0 lf 1015,1 hPa 0,0 l/m 2 min 0 min 149 W/m 18,8 km/h (3 Bft)
07.08.2015 19:22 27,7 C 26,1 C 69 % 0 lf 1015,0 hPa 0,0 l/m 2 min 0 min 142 W/m 16,7 km/h (3 Bft)
07.08.2015 19:24 27,7 C 26,1 C 69 % 0 lf 1014,9 hPa 0,0 l/m 0 min 0 min 126 W/m 16,7 km/h (3 Bft)
07.08.2015 19:26 27,7 C 26,1 C 70 % 0 lf 1015,0 hPa 0,0 l/m 0 min 0 min 123 W/m 14,6 km/h (3 Bft)
07.08.2015 19:28 27,7 C 26,1 C 70 % 0 lf 1015,0 hPa 0,0 l/m 0 min 0 min 118 W/m 14,6 km/h (3 Bft)
07.08.2015 19:30 27,7 C 26,1 C 70 % 0 lf 1015,0 hPa 0,0 l/m 0 min 0 min 114 W/m 14,6 km/h (3 Bft)
07.08.2015 19:32 27,6 C 26,1 C 70 % 0 lf 1015,0 hPa 0,0 l/m 0 min 0 min 111 W/m 14,6 km/h (3 Bft)
07.08.2015 19:34 27,6 C 26,1 C 70 % 0 lf 1014,9 hPa 0,0 l/m 2 min 0 min 127 W/m 12,6 km/h (3 Bft)
07.08.2015 19:36 27,6 C 25,6 C 70 % 0 lf 1015,0 hPa 0,0 l/m 0 min 0 min 101 W/m 8,4 km/h (2 Bft)
07.08.2015 19:38 27,6 C 25,6 C 71 % 0 lf 1015,1 hPa 0,0 l/m 2 min 0 min 119 W/m 6,3 km/h (2 Bft)
07.08.2015 19:40 27,6 C 25,6 C 71 % 0 lf 1015,2 hPa 0,0 l/m 2 min 0 min 118 W/m 12,6 km/h (3 Bft)
07.08.2015 19:42 27,6 C 25,6 C 70 % 0 lf 1015,1 hPa 0,0 l/m 2 min 0 min 118 W/m 18,8 km/h (3 Bft)
07.08.2015 19:44 27,6 C 25,6 C 70 % 0 lf 1015,1 hPa 0,0 l/m 0 min 0 min 98 W/m 16,7 km/h (3 Bft)
07.08.2015 19:46 27,5 C 25,6 C 69 % 0 lf 1015,1 hPa 0,0 l/m 0 min 0 min 70 W/m 14,6 km/h (3 Bft)
07.08.2015 19:48 27,5 C 25,6 C 69 % 0 lf 1015,0 hPa 0,0 l/m 0 min 0 min 60 W/m 16,7 km/h (3 Bft)
07.08.2015 19:50 27,4 C 25,6 C 69 % 0 lf 1015,1 hPa 0,0 l/m 0 min 0 min 48 W/m 18,8 km/h (3 Bft)
07.08.2015 19:52 27,4 C 25,6 C 70 % 0 lf 1015,1 hPa 0,0 l/m 0 min 0 min 46 W/m 18,8 km/h (3 Bft)
07.08.2015 19:54 27,4 C 25,0 C 70 % 0 lf 1015,1 hPa 0,0 l/m 0 min 0 min 56 W/m 16,7 km/h (3 Bft)
07.08.2015 19:56 27,4 C 25,0 C 70 % 0 lf 1015,1 hPa 0,0 l/m 0 min 0 min 52 W/m 14,6 km/h (3 Bft)
07.08.2015 19:58 27,3 C 25,0 C 70 % 0 lf 1015,2 hPa 0,0 l/m 0 min 0 min 43 W/m 14,6 km/h (3 Bft)
07.08.2015 20:00 27,3 C 25,0 C 70 % 0 lf 1015,2 hPa 0,0 l/m 0 min 0 min 40 W/m 16,7 km/h (3 Bft)
07.08.2015 20:02 27,2 C 25,0 C 70 % 0 lf 1015,2 hPa 0,0 l/m 0 min 0 min 35 W/m 14,6 km/h (3 Bft)
07.08.2015 20:04 27,2 C 25,0 C 70 % 0 lf 1015,2 hPa 0,0 l/m 0 min 0 min 32 W/m 12,6 km/h (3 Bft)
07.08.2015 20:06 27,2 C 25,0 C 71 % 0 lf 1015,2 hPa 0,0 l/m 0 min 0 min 32 W/m 8,4 km/h (2 Bft)
07.08.2015 20:08 27,1 C 25,0 C 71 % 0 lf 1015,2 hPa 0,0 l/m 0 min 0 min 33 W/m 14,6 km/h (3 Bft)
07.08.2015 20:10 27,1 C 25,0 C 71 % 0 lf 1015,2 hPa 0,0 l/m 0 min 0 min 33 W/m 12,6 km/h (3 Bft)
07.08.2015 20:12 27,0 C 24,4 C 71 % 0 lf 1015,2 hPa 0,0 l/m 0 min 0 min 31 W/m 8,4 km/h (2 Bft)
07.08.2015 20:14 27,0 C 24,4 C 71 % 0 lf 1015,2 hPa 0,0 l/m 0 min 0 min 28 W/m 12,6 km/h (3 Bft)
07.08.2015 20:16 26,9 C 24,4 C 71 % 0 lf 1015,2 hPa 0,0 l/m 0 min 0 min 28 W/m 8,4 km/h (2 Bft)
07.08.2015 20:18 26,9 C 24,4 C 71 % 0 lf 1015,2 hPa 0,0 l/m 0 min 0 min 30 W/m 10,5 km/h (2 Bft)
07.08.2015 20:20 26,8 C 24,4 C 71 % 0 lf 1015,2 hPa 0,0 l/m 0 min 0 min 29 W/m 8,4 km/h (2 Bft)
07.08.2015 20:22 26,8 C 24,4 C 71 % 0 lf 1015,2 hPa 0,0 l/m 0 min 0 min 25 W/m 14,6 km/h (3 Bft)
07.08.2015 20:24 26,8 C 24,4 C 71 % 0 lf 1015,2 hPa 0,0 l/m 0 min 0 min 24 W/m 14,6 km/h (3 Bft)
07.08.2015 20:26 26,7 C 24,4 C 72 % 0 lf 1015,1 hPa 0,0 l/m 0 min 0 min 23 W/m 14,6 km/h (3 Bft)
07.08.2015 20:28 26,7 C 24,4 C 72 % 0 lf 1015,2 hPa 0,0 l/m 0 min 0 min 21 W/m 12,6 km/h (3 Bft)
07.08.2015 20:30 26,6 C 24,4 C 72 % 0 lf 1015,2 hPa 0,0 l/m 0 min 0 min 20 W/m 12,6 km/h (3 Bft)
07.08.2015 20:32 26,6 C 24,4 C 72 % 0 lf 1015,2 hPa 0,0 l/m 0 min 0 min 19 W/m 10,5 km/h (2 Bft)
07.08.2015 20:34 26,6 C 24,4 C 72 % 0 lf 1015,3 hPa 0,0 l/m 0 min 0 min 16 W/m 14,6 km/h (3 Bft)
07.08.2015 20:36 26,5 C 24,4 C 72 % 0 lf 1015,3 hPa 0,0 l/m 0 min 0 min 13 W/m 12,6 km/h (3 Bft)
07.08.2015 20:38 26,4 C 24,4 C 72 % 0 lf 1015,3 hPa 0,0 l/m 0 min 0 min 11 W/m 16,7 km/h (3 Bft)
07.08.2015 20:40 26,4 C 24,4 C 73 % 0 lf 1015,4 hPa 0,0 l/m 0 min 0 min 8 W/m 16,7 km/h (3 Bft)
07.08.2015 20:42 26,4 C 24,4 C 73 % 0 lf 1015,4 hPa 0,0 l/m 0 min 0 min 7 W/m 10,5 km/h (2 Bft)
07.08.2015 20:44 26,3 C 24,4 C 73 % 0 lf 1015,4 hPa 0,0 l/m 0 min 0 min 5 W/m 8,4 km/h (2 Bft)
07.08.2015 20:46 26,3 C 23,9 C 73 % 0 lf 1015,4 hPa 0,0 l/m 0 min 0 min 5 W/m 12,6 km/h (3 Bft)
07.08.2015 20:48 26,3 C 23,9 C 73 % 0 lf 1015,4 hPa 0,0 l/m 0 min 0 min 5 W/m 14,6 km/h (3 Bft)
07.08.2015 20:50 26,2 C 23,9 C 73 % 0 lf 1015,5 hPa 0,0 l/m 0 min 0 min 5 W/m 12,6 km/h (3 Bft)
07.08.2015 20:52 26,2 C 23,9 C 73 % 0 lf 1015,4 hPa 0,0 l/m 0 min 0 min 5 W/m 8,4 km/h (2 Bft)
07.08.2015 20:54 26,2 C 23,9 C 74 % 0 lf 1015,5 hPa 0,0 l/m 0 min 0 min 5 W/m 14,6 km/h (3 Bft)
07.08.2015 20:56 26,2 C 23,9 C 74 % 0 lf 1015,5 hPa 0,0 l/m 0 min 0 min 5 W/m 10,5 km/h (2 Bft)
07.08.2015 20:58 26,1 C 23,9 C 74 % 0 lf 1015,5 hPa 0,0 l/m 0 min 0 min 5 W/m 10,5 km/h (2 Bft)
07.08.2015 21:00 26,1 C 23,9 C 74 % 0 lf 1015,6 hPa 0,0 l/m 0 min 0 min 5 W/m 10,5 km/h (2 Bft)
07.08.2015 21:02 26,0 C 23,9 C 74 % 0 lf 1015,6 hPa 0,0 l/m 0 min 0 min 5 W/m 10,5 km/h (2 Bft)
07.08.2015 21:04 26,0 C 23,3 C 74 % 0 lf 1015,6 hPa 0,0 l/m 0 min 0 min 1 W/m 8,4 km/h (2 Bft)
07.08.2015 21:06 25,9 C 23,3 C 74 % 0 lf 1015,6 hPa 0,0 l/m 0 min 0 min 0 W/m 6,3 km/h (2 Bft)
07.08.2015 21:08 25,9 C 23,3 C 75 % 0 lf 1015,7 hPa 0,0 l/m 0 min 0 min 0 W/m 6,3 km/h (2 Bft)
07.08.2015 21:10 25,9 C 23,3 C 75 % 0 lf 1015,8 hPa 0,0 l/m 0 min 0 min 0 W/m 6,3 km/h (2 Bft)
07.08.2015 21:12 25,9 C 23,3 C 75 % 0 lf 1015,9 hPa 0,0 l/m 0 min 0 min 0 W/m 8,4 km/h (2 Bft)
07.08.2015 21:14 25,8 C 22,8 C 75 % 0 lf 1015,9 hPa 0,0 l/m 0 min 0 min 0 W/m 8,4 km/h (2 Bft)
07.08.2015 21:16 25,8 C 23,3 C 75 % 0 lf 1015,9 hPa 0,0 l/m 0 min 0 min 0 W/m 12,6 km/h (3 Bft)
07.08.2015 21:18 25,7 C 23,3 C 75 % 0 lf 1016,0 hPa 0,0 l/m 0 min 0 min 0 W/m 8,4 km/h (2 Bft)
07.08.2015 21:20 25,7 C 23,3 C 76 % 0 lf 1016,0 hPa 0,0 l/m 0 min 0 min 0 W/m 8,4 km/h (2 Bft)
07.08.2015 21:22 25,7 C 23,3 C 76 % 0 lf 1016,1 hPa 0,0 l/m 0 min 0 min 0 W/m 8,4 km/h (2 Bft)
07.08.2015 21:24 25,6 C 23,3 C 76 % 0 lf 1016,1 hPa 0,0 l/m 0 min 0 min 0 W/m 12,6 km/h (3 Bft)
07.08.2015 21:26 25,6 C 23,3 C 76 % 0 lf 1016,2 hPa 0,0 l/m 0 min 0 min 0 W/m 10,5 km/h (2 Bft)
07.08.2015 21:28 25,6 C 23,3 C 77 % 0 lf 1016,3 hPa 0,0 l/m 0 min 0 min 0 W/m 8,4 km/h (2 Bft)
07.08.2015 21:30 25,5 C 22,8 C 77 % 0 lf 1016,3 hPa 0,0 l/m 0 min 0 min 0 W/m 8,4 km/h (2 Bft)
07.08.2015 21:32 25,5 C 22,8 C 77 % 0 lf 1016,3 hPa 0,0 l/m 0 min 0 min 0 W/m 12,6 km/h (3 Bft)
07.08.2015 21:34 25,4 C 22,8 C 77 % 0 lf 1016,3 hPa 0,0 l/m 0 min 0 min 0 W/m 8,4 km/h (2 Bft)
07.08.2015 21:36 25,4 C 22,8 C 77 % 0 lf 1016,3 hPa 0,0 l/m 0 min 0 min 0 W/m 8,4 km/h (2 Bft)
07.08.2015 21:38 25,4 C 22,8 C 78 % 0 lf 1016,3 hPa 0,0 l/m 0 min 0 min 0 W/m 8,4 km/h (2 Bft)
07.08.2015 21:40 25,3 C 22,8 C 78 % 0 lf 1016,4 hPa 0,0 l/m 0 min 0 min 0 W/m 10,5 km/h (2 Bft)
07.08.2015 21:42 25,3 C 22,8 C 78 % 0 lf 1016,5 hPa 0,0 l/m 0 min 0 min 0 W/m 10,5 km/h (2 Bft)
07.08.2015 21:44 25,3 C 22,8 C 78 % 0 lf 1016,6 hPa 0,0 l/m 0 min 0 min 0 W/m 12,6 km/h (3 Bft)
07.08.2015 21:46 25,2 C 22,8 C 78 % 0 lf 1016,6 hPa 0,0 l/m 0 min 0 min 0 W/m 8,4 km/h (2 Bft)
07.08.2015 21:48 25,2 C 22,8 C 79 % 0 lf 1016,5 hPa 0,0 l/m 0 min 0 min 0 W/m 8,4 km/h (2 Bft)
07.08.2015 21:50 25,2 C 22,8 C 79 % 0 lf 1016,4 hPa 0,0 l/m 0 min 0 min 0 W/m 10,5 km/h (2 Bft)
07.08.2015 21:52 25,1 C 22,8 C 79 % 0 lf 1016,4 hPa 0,0 l/m 0 min 0 min 0 W/m 8,4 km/h (2 Bft)
07.08.2015 21:54 25,1 C 22,8 C 79 % 0 lf 1016,5 hPa 0,0 l/m 0 min 0 min 0 W/m 10,5 km/h (2 Bft)
07.08.2015 21:56 25,1 C 22,8 C 79 % 0 lf 1016,6 hPa 0,0 l/m 0 min 0 min 0 W/m 12,6 km/h (3 Bft)
07.08.2015 21:58 25,1 C 22,8 C 79 % 0 lf 1016,6 hPa 0,0 l/m 0 min 0 min 0 W/m 12,6 km/h (3 Bft)
07.08.2015 22:00 25,1 C 22,8 C 79 % 0 lf 1016,5 hPa 0,0 l/m 0 min 0 min 0 W/m 16,7 km/h (3 Bft)
07.08.2015 22:02 25,0 C 22,8 C 80 % 0 lf 1016,4 hPa 0,0 l/m 0 min 0 min 0 W/m 8,4 km/h (2 Bft)
07.08.2015 22:04 25,0 C 22,8 C 80 % 0 lf 1016,4 hPa 0,0 l/m 0 min 0 min 0 W/m 10,5 km/h (2 Bft)
07.08.2015 22:06 24,9 C 22,8 C 80 % 0 lf 1016,3 hPa 0,0 l/m 0 min 0 min 0 W/m 10,5 km/h (2 Bft)
07.08.2015 22:08 24,9 C 22,8 C 80 % 0 lf 1016,3 hPa 0,0 l/m 0 min 0 min 0 W/m 10,5 km/h (2 Bft)
07.08.2015 22:10 24,9 C 22,8 C 80 % 0 lf 1016,3 hPa 0,0 l/m 0 min 0 min 0 W/m 12,6 km/h (3 Bft)
07.08.2015 22:12 24,8 C 22,8 C 80 % 0 lf 1016,3 hPa 0,0 l/m 0 min 0 min 0 W/m 10,5 km/h (2 Bft)
07.08.2015 22:14 24,8 C 22,8 C 80 % 0 lf 1016,3 hPa 0,0 l/m 0 min 0 min 0 W/m 12,6 km/h (3 Bft)
07.08.2015 22:16 24,8 C 22,8 C 81 % 0 lf 1016,3 hPa 0,0 l/m 0 min 0 min 0 W/m 10,5 km/h (2 Bft)
07.08.2015 22:18 24,7 C 22,8 C 81 % 0 lf 1016,4 hPa 0,0 l/m 0 min 0 min 0 W/m 10,5 km/h (2 Bft)
07.08.2015 22:20 24,7 C 22,8 C 81 % 0 lf 1016,4 hPa 0,0 l/m 0 min 0 min 0 W/m 14,6 km/h (3 Bft)
07.08.2015 22:22 24,7 C 22,8 C 81 % 0 lf 1016,5 hPa 0,0 l/m 0 min 0 min 0 W/m 12,6 km/h (3 Bft)
07.08.2015 22:24 24,7 C 22,8 C 81 % 0 lf 1016,4 hPa 0,0 l/m 0 min 0 min 0 W/m 10,5 km/h (2 Bft)
07.08.2015 22:26 24,6 C 22,8 C 81 % 0 lf 1016,4 hPa 0,0 l/m 0 min 0 min 0 W/m 16,7 km/h (3 Bft)
07.08.2015 22:28 24,6 C 22,8 C 82 % 0 lf 1016,4 hPa 0,0 l/m 0 min 0 min 0 W/m 12,6 km/h (3 Bft)
07.08.2015 22:30 24,6 C 22,8 C 82 % 0 lf 1016,4 hPa 0,0 l/m 0 min 0 min 0 W/m 12,6 km/h (3 Bft)
07.08.2015 22:32 24,6 C 22,8 C 82 % 0 lf 1016,6 hPa 0,0 l/m 0 min 0 min 0 W/m 12,6 km/h (3 Bft)
07.08.2015 22:34 24,5 C 22,8 C 82 % 0 lf 1016,7 hPa 0,0 l/m 0 min 0 min 0 W/m 12,6 km/h (3 Bft)
07.08.2015 22:36 24,5 C 22,8 C 82 % 0 lf 1016,7 hPa 0,0 l/m 0 min 0 min 0 W/m 12,6 km/h (3 Bft)
07.08.2015 22:38 24,5 C 22,8 C 82 % 0 lf 1016,7 hPa 0,0 l/m 0 min 0 min 0 W/m 6,3 km/h (2 Bft)
07.08.2015 22:40 24,4 C 22,8 C 82 % 0 lf 1016,8 hPa 0,0 l/m 0 min 0 min 0 W/m 6,3 km/h (2 Bft)
07.08.2015 22:42 24,4 C 22,8 C 82 % 0 lf 1016,7 hPa 0,0 l/m 0 min 0 min 0 W/m 14,6 km/h (3 Bft)
07.08.2015 22:44 24,4 C 22,8 C 82 % 0 lf 1016,6 hPa 0,0 l/m 0 min 0 min 0 W/m 18,8 km/h (3 Bft)
07.08.2015 22:46 24,4 C 22,8 C 83 % 2 lf 1016,4 hPa 0,0 l/m 0 min 0 min 0 W/m 23,0 km/h (4 Bft)
07.08.2015 22:48 24,4 C 22,8 C 82 % 4 lf 1016,3 hPa 0,0 l/m 0 min 0 min 0 W/m 16,7 km/h (3 Bft)
07.08.2015 22:50 24,3 C 22,8 C 82 % 1 lf 1016,2 hPa 0,0 l/m 0 min 2 min 0 W/m 14,6 km/h (3 Bft)
07.08.2015 22:52 24,3 C 22,8 C 82 % 3 lf 1016,2 hPa 0,0 l/m 0 min 2 min 0 W/m 14,6 km/h (3 Bft)
07.08.2015 22:54 24,3 C 22,8 C 83 % 4 lf 1016,3 hPa 0,0 l/m 0 min 2 min 0 W/m 12,6 km/h (3 Bft)
07.08.2015 22:56 24,3 C 22,2 C 83 % 7 lf 1016,1 hPa 0,0 l/m 0 min 2 min 0 W/m 16,7 km/h (3 Bft)
07.08.2015 22:58 24,3 C 22,2 C 83 % 4 lf 1015,8 hPa 0,0 l/m 0 min 2 min 0 W/m 18,8 km/h (3 Bft)
07.08.2015 23:00 24,3 C 22,2 C 83 % 4 lf 1015,7 hPa 0,0 l/m 0 min 2 min 0 W/m 18,8 km/h (3 Bft)
07.08.2015 23:02 24,3 C 21,7 C 83 % 15 lf 1015,6 hPa 0,0 l/m 0 min 2 min 0 W/m 25,1 km/h (4 Bft)
07.08.2015 23:04 24,2 C 21,7 C 83 % 15 lf 1015,7 hPa 0,0 l/m 0 min 2 min 0 W/m 23,0 km/h (4 Bft)
07.08.2015 23:06 24,2 C 21,7 C 83 % 14 lf 1015,8 hPa 0,0 l/m 0 min 2 min 0 W/m 16,7 km/h (3 Bft)
07.08.2015 23:08 24,2 C 21,7 C 83 % 10 lf 1016,2 hPa 0,0 l/m 0 min 2 min 0 W/m 6,3 km/h (2 Bft)
07.08.2015 23:10 24,2 C 21,7 C 83 % 0 lf 1016,5 hPa 0,0 l/m 0 min 0 min 0 W/m 6,3 km/h (2 Bft)
07.08.2015 23:12 24,2 C 21,7 C 83 % 0 lf 1016,8 hPa 0,0 l/m 0 min 0 min 0 W/m 10,5 km/h (2 Bft)
07.08.2015 23:14 24,2 C 21,7 C 84 % 0 lf 1016,8 hPa 0,0 l/m 0 min 0 min 0 W/m 10,5 km/h (2 Bft)
07.08.2015 23:16 24,2 C 21,7 C 84 % 0 lf 1016,8 hPa 0,0 l/m 0 min 0 min 0 W/m 2,1 km/h (1 Bft)
07.08.2015 23:18 24,2 C 21,7 C 84 % 0 lf 1016,8 hPa 0,0 l/m 0 min 0 min 0 W/m 6,3 km/h (2 Bft)
07.08.2015 23:20 24,1 C 21,7 C 83 % 0 lf 1016,8 hPa 0,0 l/m 0 min 0 min 0 W/m 10,5 km/h (2 Bft)
07.08.2015 23:22 24,1 C 21,7 C 83 % 0 lf 1016,7 hPa 0,0 l/m 0 min 0 min 0 W/m 8,4 km/h (2 Bft)
07.08.2015 23:24 24,1 C 21,7 C 83 % 0 lf 1016,7 hPa 0,0 l/m 0 min 0 min 0 W/m 10,5 km/h (2 Bft)
07.08.2015 23:26 24,1 C 22,2 C 83 % 0 lf 1016,8 hPa 0,0 l/m 0 min 0 min 0 W/m 8,4 km/h (2 Bft)
07.08.2015 23:28 24,1 C 21,7 C 83 % 0 lf 1016,8 hPa 0,0 l/m 0 min 0 min 0 W/m 8,4 km/h (2 Bft)
07.08.2015 23:30 24,1 C 21,7 C 84 % 0 lf 1016,9 hPa 0,0 l/m 0 min 0 min 0 W/m 10,5 km/h (2 Bft)
07.08.2015 23:32 24,1 C 21,7 C 84 % 0 lf 1017,0 hPa 0,0 l/m 0 min 0 min 0 W/m 8,4 km/h (2 Bft)
07.08.2015 23:34 24,0 C 21,7 C 84 % 4 lf 1017,0 hPa 0,0 l/m 0 min 0 min 0 W/m 10,5 km/h (2 Bft)
07.08.2015 23:36 24,0 C 21,7 C 84 % 0 lf 1017,1 hPa 0,0 l/m 0 min 2 min 0 W/m 6,3 km/h (2 Bft)
07.08.2015 23:38 24,0 C 21,7 C 84 % 2 lf 1017,4 hPa 0,0 l/m 0 min 2 min 0 W/m 6,3 km/h (2 Bft)
07.08.2015 23:40 24,0 C 21,7 C 84 % 12 lf 1017,6 hPa 0,0 l/m 0 min 0 min 0 W/m 8,4 km/h (2 Bft)
07.08.2015 23:42 23,9 C 21,7 C 84 % 8 lf 1017,7 hPa 0,0 l/m 0 min 2 min 0 W/m 8,4 km/h (2 Bft)
07.08.2015 23:44 23,9 C 21,1 C 84 % 15 lf 1017,7 hPa 0,0 l/m 0 min 2 min 0 W/m 4,2 km/h (1 Bft)
07.08.2015 23:46 23,9 C 21,1 C 84 % 15 lf 1017,7 hPa 0,0 l/m 0 min 2 min 0 W/m 4,2 km/h (1 Bft)
07.08.2015 23:48 23,9 C 20,6 C 85 % 15 lf 1017,8 hPa 0,0 l/m 0 min 2 min 0 W/m 8,4 km/h (2 Bft)
07.08.2015 23:50 23,9 C 20,6 C 85 % 15 lf 1018,0 hPa 0,0 l/m 0 min 2 min 0 W/m 10,5 km/h (2 Bft)
07.08.2015 23:52 23,9 C 20,6 C 85 % 15 lf 1018,1 hPa 0,0 l/m 0 min 2 min 0 W/m 10,5 km/h (2 Bft)
07.08.2015 23:54 23,9 C 20,6 C 85 % 15 lf 1018,3 hPa 0,0 l/m 0 min 2 min 0 W/m 10,5 km/h (2 Bft)
07.08.2015 23:56 23,8 C 20,0 C 85 % 15 lf 1018,5 hPa 0,2 l/m 0 min 2 min 0 W/m 10,5 km/h (2 Bft)
07.08.2015 23:58 23,8 C 20,0 C 86 % 15 lf 1018,5 hPa 0,0 l/m 0 min 2 min 0 W/m 10,5 km/h (2 Bft)
_ Min-Zeit 06:12 05:22 13:48 00:00 08:28 - - - - 11:10
Minimum _ 17,8 C 15,6 C 62 % 0 lf 1014,5 hPa - - - - 2,1 km/h (1 Bft)
_ Max-Zeit 16:46 16:20 09:36 04:00 23:56 05:48 09:00 04:00 11:26 05:54
Maximum _ 29,9 C 31,7 C 98 % 15 lf 1018,5 hPa 2,2 l/m 2 min 2 min 814 W/m 29,3 km/h
NO (5 Bft)
Durchschnitt _ 23,7 C 22,0 C 79 % 3 lf 1015,5 hPa #8,8 l/m #8:16 h #1:46 h 393 W/m 12,6 km/h (3 Bft)
© 2015 W. Hausmann